<?xml version="1.0" encoding="UTF-8" standalone="no" ?>
<gpx xmlns="http://www.topografix.com/GPX/1/1" xmlns:xsi="http://www.w3.org/2001/XMLSchema-instance" xsi:schemaLocation="http://www.topografix.com/GPX/1/1 http://www.topografix.com/GPX/1/1/gpx.xsd" version="1.1" creator="VisuGPX - https://www.visugpx.com">
  <metadata>
    <name>From Poitiers to Mauprévoir</name>
  </metadata>
  <trk>
    <name><![CDATA[From Poitiers to Mauprévoir]]></name>
    <trkseg>
      <trkpt lat="46.57817" lon="0.36232">
        <ele>112.518476</ele>
        <time>2019-08-05T15:30:16.146Z</time>
      </trkpt>
      <trkpt lat="46.57795" lon="0.36189">
        <ele>112.518476</ele>
        <time>2019-08-05T15:30:24.986Z</time>
      </trkpt>
      <trkpt lat="46.57789" lon="0.36176">
        <ele>112.518476</ele>
        <time>2019-08-05T15:30:27.748Z</time>
      </trkpt>
      <trkpt lat="46.57781" lon="0.36157">
        <ele>112.518476</ele>
        <time>2019-08-05T15:30:31.152Z</time>
      </trkpt>
      <trkpt lat="46.57773" lon="0.36133">
        <ele>112.518476</ele>
        <time>2019-08-05T15:30:35.817Z</time>
      </trkpt>
      <trkpt lat="46.57767" lon="0.36111">
        <ele>112.553999</ele>
        <time>2019-08-05T15:30:39.672Z</time>
      </trkpt>
      <trkpt lat="46.57765" lon="0.36106">
        <ele>112.572698</ele>
        <time>2019-08-05T15:30:40.594Z</time>
      </trkpt>
      <trkpt lat="46.57763" lon="0.36102">
        <ele>112.588413</ele>
        <time>2019-08-05T15:30:41.360Z</time>
      </trkpt>
      <trkpt lat="46.57761" lon="0.36098">
        <ele>112.603114</ele>
        <time>2019-08-05T15:30:42.356Z</time>
      </trkpt>
      <trkpt lat="46.57758" lon="0.36096">
        <ele>112.61639</ele>
        <time>2019-08-05T15:30:43.034Z</time>
      </trkpt>
      <trkpt lat="46.5767" lon="0.36031">
        <ele>113.075595</ele>
        <time>2019-08-05T15:31:05.563Z</time>
      </trkpt>
      <trkpt lat="46.57664" lon="0.36027">
        <ele>113.103858</ele>
        <time>2019-08-05T15:31:07.064Z</time>
      </trkpt>
      <trkpt lat="46.57625" lon="0.35995">
        <ele>113.3083</ele>
        <time>2019-08-05T15:31:15.684Z</time>
      </trkpt>
      <trkpt lat="46.57582" lon="0.35965">
        <ele>112.900127</ele>
        <time>2019-08-05T15:31:24.554Z</time>
      </trkpt>
      <trkpt lat="46.57576" lon="0.35961">
        <ele>112.824823</ele>
        <time>2019-08-05T15:31:25.795Z</time>
      </trkpt>
      <trkpt lat="46.57571" lon="0.35957">
        <ele>112.758493</ele>
        <time>2019-08-05T15:31:26.740Z</time>
      </trkpt>
      <trkpt lat="46.57569" lon="0.35956">
        <ele>112.730849</ele>
        <time>2019-08-05T15:31:27.172Z</time>
      </trkpt>
      <trkpt lat="46.57563" lon="0.35951">
        <ele>112.652114</ele>
        <time>2019-08-05T15:31:28.458Z</time>
      </trkpt>
      <trkpt lat="46.57499" lon="0.35908">
        <ele>111.839883</ele>
        <time>2019-08-05T15:31:40.693Z</time>
      </trkpt>
      <trkpt lat="46.57492" lon="0.35941">
        <ele>111.5718</ele>
        <time>2019-08-05T15:31:44.564Z</time>
      </trkpt>
      <trkpt lat="46.5749" lon="0.35938">
        <ele>111.53676</ele>
        <time>2019-08-05T15:31:45.033Z</time>
      </trkpt>
      <trkpt lat="46.57452" lon="0.35904">
        <ele>110.9019</ele>
        <time>2019-08-05T15:31:52.336Z</time>
      </trkpt>
      <trkpt lat="46.57441" lon="0.35895">
        <ele>110.677597</ele>
        <time>2019-08-05T15:31:54.427Z</time>
      </trkpt>
      <trkpt lat="46.57414" lon="0.35869">
        <ele>110.128548</ele>
        <time>2019-08-05T15:31:59.698Z</time>
      </trkpt>
      <trkpt lat="46.57408" lon="0.35863">
        <ele>109.986588</ele>
        <time>2019-08-05T15:32:01.053Z</time>
      </trkpt>
      <trkpt lat="46.57383" lon="0.35839">
        <ele>109.480297</ele>
        <time>2019-08-05T15:32:06.109Z</time>
      </trkpt>
      <trkpt lat="46.57381" lon="0.35838">
        <ele>109.44952</ele>
        <time>2019-08-05T15:32:06.395Z</time>
      </trkpt>
      <trkpt lat="46.57379" lon="0.35838">
        <ele>109.401035</ele>
        <time>2019-08-05T15:32:06.869Z</time>
      </trkpt>
      <trkpt lat="46.57335" lon="0.359">
        <ele>108.354725</ele>
        <time>2019-08-05T15:32:17.150Z</time>
      </trkpt>
      <trkpt lat="46.57333" lon="0.35903">
        <ele>108.303057</ele>
        <time>2019-08-05T15:32:17.635Z</time>
      </trkpt>
      <trkpt lat="46.57331" lon="0.35906">
        <ele>108.255122</ele>
        <time>2019-08-05T15:32:18.074Z</time>
      </trkpt>
      <trkpt lat="46.57327" lon="0.35912">
        <ele>108.169621</ele>
        <time>2019-08-05T15:32:19.238Z</time>
      </trkpt>
      <trkpt lat="46.57313" lon="0.35935">
        <ele>108.103359</ele>
        <time>2019-08-05T15:32:24.088Z</time>
      </trkpt>
      <trkpt lat="46.57304" lon="0.3595">
        <ele>108.063297</ele>
        <time>2019-08-05T15:32:26.940Z</time>
      </trkpt>
      <trkpt lat="46.57287" lon="0.3598">
        <ele>107.982433</ele>
        <time>2019-08-05T15:32:31.549Z</time>
      </trkpt>
      <trkpt lat="46.57277" lon="0.35967">
        <ele>107.940993</ele>
        <time>2019-08-05T15:32:33.896Z</time>
      </trkpt>
      <trkpt lat="46.57271" lon="0.35963">
        <ele>107.922254</ele>
        <time>2019-08-05T15:32:35.232Z</time>
      </trkpt>
      <trkpt lat="46.57264" lon="0.35959">
        <ele>107.899434</ele>
        <time>2019-08-05T15:32:36.727Z</time>
      </trkpt>
      <trkpt lat="46.57263" lon="0.35925">
        <ele>107.829616</ele>
        <time>2019-08-05T15:32:41.213Z</time>
      </trkpt>
      <trkpt lat="46.57264" lon="0.35909">
        <ele>107.795403</ele>
        <time>2019-08-05T15:32:43.704Z</time>
      </trkpt>
      <trkpt lat="46.57266" lon="0.35908">
        <ele>107.78821</ele>
        <time>2019-08-05T15:32:44.123Z</time>
      </trkpt>
      <trkpt lat="46.57271" lon="0.35895">
        <ele>107.75734</ele>
        <time>2019-08-05T15:32:46.363Z</time>
      </trkpt>
      <trkpt lat="46.57268" lon="0.35885">
        <ele>107.73431</ele>
        <time>2019-08-05T15:32:47.831Z</time>
      </trkpt>
      <trkpt lat="46.57266" lon="0.35883">
        <ele>107.727206</ele>
        <time>2019-08-05T15:32:48.224Z</time>
      </trkpt>
      <trkpt lat="46.57263" lon="0.35881">
        <ele>107.718757</ele>
        <time>2019-08-05T15:32:48.969Z</time>
      </trkpt>
      <trkpt lat="46.57254" lon="0.35885">
        <ele>107.688333</ele>
        <time>2019-08-05T15:32:51.249Z</time>
      </trkpt>
      <trkpt lat="46.57251" lon="0.3589">
        <ele>107.675291</ele>
        <time>2019-08-05T15:32:52.164Z</time>
      </trkpt>
      <trkpt lat="46.57201" lon="0.3588">
        <ele>108.055875</ele>
        <time>2019-08-05T15:33:03.718Z</time>
      </trkpt>
      <trkpt lat="46.57084" lon="0.35845">
        <ele>109.521114</ele>
        <time>2019-08-05T15:33:34.408Z</time>
      </trkpt>
      <trkpt lat="46.57009" lon="0.35823">
        <ele>110.756607</ele>
        <time>2019-08-05T15:33:55.937Z</time>
      </trkpt>
      <trkpt lat="46.56981" lon="0.35816">
        <ele>111.267685</ele>
        <time>2019-08-05T15:34:03.999Z</time>
      </trkpt>
      <trkpt lat="46.56869" lon="0.35785">
        <ele>113.324426</ele>
        <time>2019-08-05T15:34:36.691Z</time>
      </trkpt>
      <trkpt lat="46.56845" lon="0.35777">
        <ele>113.724308</ele>
        <time>2019-08-05T15:34:43.605Z</time>
      </trkpt>
      <trkpt lat="46.56812" lon="0.35767">
        <ele>114.27547</ele>
        <time>2019-08-05T15:34:52.932Z</time>
      </trkpt>
      <trkpt lat="46.56755" lon="0.35751">
        <ele>115.228508</ele>
        <time>2019-08-05T15:35:08.670Z</time>
      </trkpt>
      <trkpt lat="46.56685" lon="0.35731">
        <ele>116.307837</ele>
        <time>2019-08-05T15:35:27.843Z</time>
      </trkpt>
      <trkpt lat="46.56676" lon="0.35728">
        <ele>116.409725</ele>
        <time>2019-08-05T15:35:30.119Z</time>
      </trkpt>
      <trkpt lat="46.56624" lon="0.35714">
        <ele>117.034037</ele>
        <time>2019-08-05T15:35:44.220Z</time>
      </trkpt>
      <trkpt lat="46.56612" lon="0.35711">
        <ele>117.179912</ele>
        <time>2019-08-05T15:35:47.042Z</time>
      </trkpt>
      <trkpt lat="46.56596" lon="0.35706">
        <ele>117.374296</ele>
        <time>2019-08-05T15:35:51.049Z</time>
      </trkpt>
      <trkpt lat="46.56594" lon="0.35706">
        <ele>117.398326</ele>
        <time>2019-08-05T15:35:51.571Z</time>
      </trkpt>
      <trkpt lat="46.56562" lon="0.35697">
        <ele>117.772302</ele>
        <time>2019-08-05T15:35:58.872Z</time>
      </trkpt>
      <trkpt lat="46.56532" lon="0.35688">
        <ele>118.133416</ele>
        <time>2019-08-05T15:36:06.091Z</time>
      </trkpt>
      <trkpt lat="46.5652" lon="0.3568">
        <ele>118.255285</ele>
        <time>2019-08-05T15:36:08.996Z</time>
      </trkpt>
      <trkpt lat="46.56513" lon="0.35673">
        <ele>118.332712</ele>
        <time>2019-08-05T15:36:11.577Z</time>
      </trkpt>
      <trkpt lat="46.56498" lon="0.35643">
        <ele>118.549825</ele>
        <time>2019-08-05T15:36:17.244Z</time>
      </trkpt>
      <trkpt lat="46.56494" lon="0.35629">
        <ele>118.643046</ele>
        <time>2019-08-05T15:36:20.214Z</time>
      </trkpt>
      <trkpt lat="46.56496" lon="0.35624">
        <ele>118.673207</ele>
        <time>2019-08-05T15:36:20.829Z</time>
      </trkpt>
      <trkpt lat="46.56497" lon="0.35607">
        <ele>118.77801</ele>
        <time>2019-08-05T15:36:23.757Z</time>
      </trkpt>
      <trkpt lat="46.56489" lon="0.35545">
        <ele>119.146769</ele>
        <time>2019-08-05T15:36:34.158Z</time>
      </trkpt>
      <trkpt lat="46.56488" lon="0.35538">
        <ele>119.194014</ele>
        <time>2019-08-05T15:36:35.176Z</time>
      </trkpt>
      <trkpt lat="46.56484" lon="0.35521">
        <ele>119.29934</ele>
        <time>2019-08-05T15:36:38.463Z</time>
      </trkpt>
      <trkpt lat="46.56455" lon="0.35315">
        <ele>120.203816</ele>
        <time>2019-08-05T15:37:11.349Z</time>
      </trkpt>
      <trkpt lat="46.56452" lon="0.35303">
        <ele>120.249846</ele>
        <time>2019-08-05T15:37:13.746Z</time>
      </trkpt>
      <trkpt lat="46.56441" lon="0.35267">
        <ele>120.38909</ele>
        <time>2019-08-05T15:37:19.169Z</time>
      </trkpt>
      <trkpt lat="46.5643" lon="0.35239">
        <ele>120.502385</ele>
        <time>2019-08-05T15:37:23.921Z</time>
      </trkpt>
      <trkpt lat="46.56427" lon="0.35204">
        <ele>120.623674</ele>
        <time>2019-08-05T15:37:28.950Z</time>
      </trkpt>
      <trkpt lat="46.56422" lon="0.35198">
        <ele>120.588551</ele>
        <time>2019-08-05T15:37:30.043Z</time>
      </trkpt>
      <trkpt lat="46.56415" lon="0.35192">
        <ele>120.512604</ele>
        <time>2019-08-05T15:37:31.595Z</time>
      </trkpt>
      <trkpt lat="46.56413" lon="0.35191">
        <ele>120.487289</ele>
        <time>2019-08-05T15:37:32.064Z</time>
      </trkpt>
      <trkpt lat="46.56406" lon="0.35196">
        <ele>120.424262</ele>
        <time>2019-08-05T15:37:33.372Z</time>
      </trkpt>
      <trkpt lat="46.56403" lon="0.35208">
        <ele>120.344756</ele>
        <time>2019-08-05T15:37:35.396Z</time>
      </trkpt>
      <trkpt lat="46.56397" lon="0.35222">
        <ele>120.242013</ele>
        <time>2019-08-05T15:37:37.573Z</time>
      </trkpt>
      <trkpt lat="46.56392" lon="0.35228">
        <ele>120.182832</ele>
        <time>2019-08-05T15:37:38.790Z</time>
      </trkpt>
      <trkpt lat="46.56384" lon="0.35215">
        <ele>120.077272</ele>
        <time>2019-08-05T15:37:40.891Z</time>
      </trkpt>
      <trkpt lat="46.56363" lon="0.35174">
        <ele>119.764927</ele>
        <time>2019-08-05T15:37:46.759Z</time>
      </trkpt>
      <trkpt lat="46.56357" lon="0.35157">
        <ele>119.646744</ele>
        <time>2019-08-05T15:37:48.909Z</time>
      </trkpt>
      <trkpt lat="46.56343" lon="0.35142">
        <ele>119.4881</ele>
        <time>2019-08-05T15:37:51.772Z</time>
      </trkpt>
      <trkpt lat="46.56312" lon="0.35134">
        <ele>119.206433</ele>
        <time>2019-08-05T15:37:56.831Z</time>
      </trkpt>
      <trkpt lat="46.5626" lon="0.35121">
        <ele>118.531881</ele>
        <time>2019-08-05T15:38:05.389Z</time>
      </trkpt>
      <trkpt lat="46.56249" lon="0.35115">
        <ele>118.340111</ele>
        <time>2019-08-05T15:38:08.731Z</time>
      </trkpt>
      <trkpt lat="46.56177" lon="0.35091">
        <ele>117.197089</ele>
        <time>2019-08-05T15:38:29.337Z</time>
      </trkpt>
      <trkpt lat="46.56115" lon="0.35094">
        <ele>116.237592</ele>
        <time>2019-08-05T15:38:46.608Z</time>
      </trkpt>
      <trkpt lat="46.56002" lon="0.35058">
        <ele>114.39196</ele>
        <time>2019-08-05T15:39:19.693Z</time>
      </trkpt>
      <trkpt lat="46.55896" lon="0.35003">
        <ele>112.179628</ele>
        <time>2019-08-05T15:39:51.013Z</time>
      </trkpt>
      <trkpt lat="46.55786" lon="0.34981">
        <ele>109.4266</ele>
        <time>2019-08-05T15:40:20.717Z</time>
      </trkpt>
      <trkpt lat="46.55777" lon="0.34984">
        <ele>109.175886</ele>
        <time>2019-08-05T15:40:23.313Z</time>
      </trkpt>
      <trkpt lat="46.55773" lon="0.34973">
        <ele>108.964593</ele>
        <time>2019-08-05T15:40:24.611Z</time>
      </trkpt>
      <trkpt lat="46.55761" lon="0.34979">
        <ele>108.376342</ele>
        <time>2019-08-05T15:40:26.432Z</time>
      </trkpt>
      <trkpt lat="46.55732" lon="0.34982">
        <ele>106.834074</ele>
        <time>2019-08-05T15:40:30.669Z</time>
      </trkpt>
      <trkpt lat="46.55716" lon="0.34976">
        <ele>105.954149</ele>
        <time>2019-08-05T15:40:33.011Z</time>
      </trkpt>
      <trkpt lat="46.55697" lon="0.34957">
        <ele>104.736328</ele>
        <time>2019-08-05T15:40:36.258Z</time>
      </trkpt>
      <trkpt lat="46.55687" lon="0.34936">
        <ele>103.815392</ele>
        <time>2019-08-05T15:40:38.667Z</time>
      </trkpt>
      <trkpt lat="46.55671" lon="0.34888">
        <ele>101.851929</ele>
        <time>2019-08-05T15:40:43.766Z</time>
      </trkpt>
      <trkpt lat="46.55634" lon="0.34909">
        <ele>99.756656</ele>
        <time>2019-08-05T15:40:52.916Z</time>
      </trkpt>
      <trkpt lat="46.55623" lon="0.34879">
        <ele>98.415312</ele>
        <time>2019-08-05T15:40:58.227Z</time>
      </trkpt>
      <trkpt lat="46.55612" lon="0.3488">
        <ele>97.695484</ele>
        <time>2019-08-05T15:41:00.896Z</time>
      </trkpt>
      <trkpt lat="46.55595" lon="0.34862">
        <ele>96.407891</ele>
        <time>2019-08-05T15:41:05.669Z</time>
      </trkpt>
      <trkpt lat="46.55521" lon="0.34814">
        <ele>91.373608</ele>
        <time>2019-08-05T15:41:24.157Z</time>
      </trkpt>
      <trkpt lat="46.55489" lon="0.34811">
        <ele>89.42093</ele>
        <time>2019-08-05T15:41:31.542Z</time>
      </trkpt>
      <trkpt lat="46.55446" lon="0.34753">
        <ele>87.250897</ele>
        <time>2019-08-05T15:41:45.875Z</time>
      </trkpt>
      <trkpt lat="46.55431" lon="0.3472">
        <ele>86.59963</ele>
        <time>2019-08-05T15:41:52.854Z</time>
      </trkpt>
      <trkpt lat="46.55413" lon="0.3471">
        <ele>86.128155</ele>
        <time>2019-08-05T15:41:58.096Z</time>
      </trkpt>
      <trkpt lat="46.55393" lon="0.34698">
        <ele>85.62353</ele>
        <time>2019-08-05T15:42:03.739Z</time>
      </trkpt>
      <trkpt lat="46.55439" lon="0.34536">
        <ele>84.316952</ele>
        <time>2019-08-05T15:42:26.913Z</time>
      </trkpt>
      <trkpt lat="46.55438" lon="0.34499">
        <ele>84.546874</ele>
        <time>2019-08-05T15:42:33.141Z</time>
      </trkpt>
      <trkpt lat="46.55422" lon="0.34461">
        <ele>84.825058</ele>
        <time>2019-08-05T15:42:42.062Z</time>
      </trkpt>
      <trkpt lat="46.55403" lon="0.34435">
        <ele>85.065183</ele>
        <time>2019-08-05T15:42:49.845Z</time>
      </trkpt>
      <trkpt lat="46.5537" lon="0.34417">
        <ele>85.387579</ele>
        <time>2019-08-05T15:43:00.287Z</time>
      </trkpt>
      <trkpt lat="46.55297" lon="0.34414">
        <ele>85.676913</ele>
        <time>2019-08-05T15:43:18.809Z</time>
      </trkpt>
      <trkpt lat="46.55208" lon="0.34391">
        <ele>85.917966</ele>
        <time>2019-08-05T15:43:36.594Z</time>
      </trkpt>
      <trkpt lat="46.55168" lon="0.3438">
        <ele>86.292284</ele>
        <time>2019-08-05T15:43:43.693Z</time>
      </trkpt>
      <trkpt lat="46.5512" lon="0.34375">
        <ele>87.722185</ele>
        <time>2019-08-05T15:43:54.906Z</time>
      </trkpt>
      <trkpt lat="46.55081" lon="0.3435">
        <ele>88.981598</ele>
        <time>2019-08-05T15:44:10.345Z</time>
      </trkpt>
      <trkpt lat="46.55036" lon="0.34336">
        <ele>90.363049</ele>
        <time>2019-08-05T15:44:30.403Z</time>
      </trkpt>
      <trkpt lat="46.55039" lon="0.34343">
        <ele>90.529471</ele>
        <time>2019-08-05T15:44:33.966Z</time>
      </trkpt>
      <trkpt lat="46.55052" lon="0.3436">
        <ele>91.061887</ele>
        <time>2019-08-05T15:44:45.428Z</time>
      </trkpt>
      <trkpt lat="46.55055" lon="0.34375">
        <ele>91.375474</ele>
        <time>2019-08-05T15:44:50.299Z</time>
      </trkpt>
      <trkpt lat="46.55055" lon="0.34387">
        <ele>91.715977</ele>
        <time>2019-08-05T15:44:55.637Z</time>
      </trkpt>
      <trkpt lat="46.55064" lon="0.34399">
        <ele>92.208063</ele>
        <time>2019-08-05T15:45:03.902Z</time>
      </trkpt>
      <trkpt lat="46.55052" lon="0.34442">
        <ele>93.501056</ele>
        <time>2019-08-05T15:45:21.935Z</time>
      </trkpt>
      <trkpt lat="46.55005" lon="0.34448">
        <ele>95.454254</ele>
        <time>2019-08-05T15:45:49.212Z</time>
      </trkpt>
      <trkpt lat="46.54927" lon="0.34378">
        <ele>98.823469</ele>
        <time>2019-08-05T15:46:23.818Z</time>
      </trkpt>
      <trkpt lat="46.54873" lon="0.34301">
        <ele>99.435815</ele>
        <time>2019-08-05T15:46:37.772Z</time>
      </trkpt>
      <trkpt lat="46.54869" lon="0.34249">
        <ele>99.721865</ele>
        <time>2019-08-05T15:46:44.423Z</time>
      </trkpt>
      <trkpt lat="46.54838" lon="0.34224">
        <ele>100.007247</ele>
        <time>2019-08-05T15:46:51.972Z</time>
      </trkpt>
      <trkpt lat="46.54821" lon="0.34206">
        <ele>100.173823</ele>
        <time>2019-08-05T15:46:58.254Z</time>
      </trkpt>
      <trkpt lat="46.54806" lon="0.34197">
        <ele>100.889827</ele>
        <time>2019-08-05T15:47:02.954Z</time>
      </trkpt>
      <trkpt lat="46.54801" lon="0.34198">
        <ele>101.132343</ele>
        <time>2019-08-05T15:47:04.770Z</time>
      </trkpt>
      <trkpt lat="46.54789" lon="0.34205">
        <ele>101.700079</ele>
        <time>2019-08-05T15:47:09.588Z</time>
      </trkpt>
      <trkpt lat="46.54727" lon="0.34256">
        <ele>104.946395</ele>
        <time>2019-08-05T15:47:39.436Z</time>
      </trkpt>
      <trkpt lat="46.54688" lon="0.34288">
        <ele>106.96677</ele>
        <time>2019-08-05T15:48:01.424Z</time>
      </trkpt>
      <trkpt lat="46.54683" lon="0.34282">
        <ele>107.24258</ele>
        <time>2019-08-05T15:48:05.454Z</time>
      </trkpt>
      <trkpt lat="46.54676" lon="0.34281">
        <ele>107.570867</ele>
        <time>2019-08-05T15:48:08.787Z</time>
      </trkpt>
      <trkpt lat="46.54632" lon="0.34297">
        <ele>109.65611</ele>
        <time>2019-08-05T15:48:31.583Z</time>
      </trkpt>
      <trkpt lat="46.5458" lon="0.34317">
        <ele>112.208563</ele>
        <time>2019-08-05T15:48:56.956Z</time>
      </trkpt>
      <trkpt lat="46.54539" lon="0.34327">
        <ele>114.121827</ele>
        <time>2019-08-05T15:49:14.855Z</time>
      </trkpt>
      <trkpt lat="46.544" lon="0.34318">
        <ele>117.742855</ele>
        <time>2019-08-05T15:50:05.862Z</time>
      </trkpt>
      <trkpt lat="46.54338" lon="0.3431">
        <ele>118.473715</ele>
        <time>2019-08-05T15:50:20.585Z</time>
      </trkpt>
      <trkpt lat="46.54296" lon="0.34306">
        <ele>118.450674</ele>
        <time>2019-08-05T15:50:27.766Z</time>
      </trkpt>
      <trkpt lat="46.54232" lon="0.34308">
        <ele>114.794375</ele>
        <time>2019-08-05T15:50:44.244Z</time>
      </trkpt>
      <trkpt lat="46.54188" lon="0.3431">
        <ele>112.2463</ele>
        <time>2019-08-05T15:50:54.632Z</time>
      </trkpt>
      <trkpt lat="46.54158" lon="0.34316">
        <ele>110.544956</ele>
        <time>2019-08-05T15:51:01.287Z</time>
      </trkpt>
      <trkpt lat="46.54116" lon="0.34335">
        <ele>107.765641</ele>
        <time>2019-08-05T15:51:10.797Z</time>
      </trkpt>
      <trkpt lat="46.54041" lon="0.3438">
        <ele>101.109639</ele>
        <time>2019-08-05T15:51:28.238Z</time>
      </trkpt>
      <trkpt lat="46.54012" lon="0.34392">
        <ele>98.63643</ele>
        <time>2019-08-05T15:51:35.048Z</time>
      </trkpt>
      <trkpt lat="46.54011" lon="0.34391">
        <ele>98.562357</ele>
        <time>2019-08-05T15:51:35.230Z</time>
      </trkpt>
      <trkpt lat="46.53951" lon="0.34416">
        <ele>93.624717</ele>
        <time>2019-08-05T15:51:49.693Z</time>
      </trkpt>
      <trkpt lat="46.53926" lon="0.34484">
        <ele>91.789671</ele>
        <time>2019-08-05T15:52:02.107Z</time>
      </trkpt>
      <trkpt lat="46.53909" lon="0.34493">
        <ele>91.145659</ele>
        <time>2019-08-05T15:52:06.871Z</time>
      </trkpt>
      <trkpt lat="46.53877" lon="0.345">
        <ele>90.021252</ele>
        <time>2019-08-05T15:52:15.185Z</time>
      </trkpt>
      <trkpt lat="46.53849" lon="0.34502">
        <ele>89.049564</ele>
        <time>2019-08-05T15:52:22.899Z</time>
      </trkpt>
      <trkpt lat="46.53719" lon="0.34452">
        <ele>86.797728</ele>
        <time>2019-08-05T15:53:01.721Z</time>
      </trkpt>
      <trkpt lat="46.53631" lon="0.3441">
        <ele>86.093007</ele>
        <time>2019-08-05T15:53:30.075Z</time>
      </trkpt>
      <trkpt lat="46.53572" lon="0.34406">
        <ele>86.292646</ele>
        <time>2019-08-05T15:53:48.553Z</time>
      </trkpt>
      <trkpt lat="46.53538" lon="0.34378">
        <ele>86.425885</ele>
        <time>2019-08-05T15:54:01.240Z</time>
      </trkpt>
      <trkpt lat="46.53446" lon="0.34339">
        <ele>86.91851</ele>
        <time>2019-08-05T15:54:35.677Z</time>
      </trkpt>
      <trkpt lat="46.53409" lon="0.34343">
        <ele>87.383465</ele>
        <time>2019-08-05T15:54:49.558Z</time>
      </trkpt>
      <trkpt lat="46.53391" lon="0.34338">
        <ele>87.614165</ele>
        <time>2019-08-05T15:54:56.457Z</time>
      </trkpt>
      <trkpt lat="46.53385" lon="0.34333">
        <ele>87.69934</ele>
        <time>2019-08-05T15:54:59.183Z</time>
      </trkpt>
      <trkpt lat="46.53354" lon="0.34372">
        <ele>88.219637</ele>
        <time>2019-08-05T15:55:15.258Z</time>
      </trkpt>
      <trkpt lat="46.53248" lon="0.3439">
        <ele>89.481742</ele>
        <time>2019-08-05T15:55:56.762Z</time>
      </trkpt>
      <trkpt lat="46.53128" lon="0.3433">
        <ele>90.885513</ele>
        <time>2019-08-05T15:56:43.185Z</time>
      </trkpt>
      <trkpt lat="46.53065" lon="0.34341">
        <ele>91.630276</ele>
        <time>2019-08-05T15:57:06.416Z</time>
      </trkpt>
      <trkpt lat="46.53028" lon="0.34337">
        <ele>92.058424</ele>
        <time>2019-08-05T15:57:19.601Z</time>
      </trkpt>
      <trkpt lat="46.53016" lon="0.34336">
        <ele>92.198829</ele>
        <time>2019-08-05T15:57:23.886Z</time>
      </trkpt>
      <trkpt lat="46.53007" lon="0.34335">
        <ele>92.308791</ele>
        <time>2019-08-05T15:57:27.562Z</time>
      </trkpt>
      <trkpt lat="46.52987" lon="0.34335">
        <ele>92.536424</ele>
        <time>2019-08-05T15:57:34.512Z</time>
      </trkpt>
      <trkpt lat="46.52989" lon="0.34347">
        <ele>92.636461</ele>
        <time>2019-08-05T15:57:36.733Z</time>
      </trkpt>
      <trkpt lat="46.52987" lon="0.34348">
        <ele>92.665604</ele>
        <time>2019-08-05T15:57:37.809Z</time>
      </trkpt>
      <trkpt lat="46.52913" lon="0.344">
        <ele>94.179541</ele>
        <time>2019-08-05T15:58:01.819Z</time>
      </trkpt>
      <trkpt lat="46.52876" lon="0.34398">
        <ele>95.01274</ele>
        <time>2019-08-05T15:58:13.079Z</time>
      </trkpt>
      <trkpt lat="46.52851" lon="0.34388">
        <ele>95.609495</ele>
        <time>2019-08-05T15:58:21.406Z</time>
      </trkpt>
      <trkpt lat="46.52847" lon="0.34387">
        <ele>95.705573</ele>
        <time>2019-08-05T15:58:23.254Z</time>
      </trkpt>
      <trkpt lat="46.52739" lon="0.34311">
        <ele>98.713365</ele>
        <time>2019-08-05T15:59:03.988Z</time>
      </trkpt>
      <trkpt lat="46.5267" lon="0.34294">
        <ele>100.636773</ele>
        <time>2019-08-05T15:59:28.605Z</time>
      </trkpt>
      <trkpt lat="46.52582" lon="0.34278">
        <ele>102.699196</ele>
        <time>2019-08-05T15:59:57.406Z</time>
      </trkpt>
      <trkpt lat="46.5255" lon="0.34272">
        <ele>103.233466</ele>
        <time>2019-08-05T16:00:07.107Z</time>
      </trkpt>
      <trkpt lat="46.52494" lon="0.34259">
        <ele>104.180281</ele>
        <time>2019-08-05T16:00:23.600Z</time>
      </trkpt>
      <trkpt lat="46.52442" lon="0.34265">
        <ele>105.047901</ele>
        <time>2019-08-05T16:00:37.131Z</time>
      </trkpt>
      <trkpt lat="46.52427" lon="0.34272">
        <ele>105.040761</ele>
        <time>2019-08-05T16:00:41.077Z</time>
      </trkpt>
      <trkpt lat="46.5242" lon="0.34264">
        <ele>105.000805</ele>
        <time>2019-08-05T16:00:43.792Z</time>
      </trkpt>
      <trkpt lat="46.52337" lon="0.34302">
        <ele>104.600422</ele>
        <time>2019-08-05T16:01:12.786Z</time>
      </trkpt>
      <trkpt lat="46.52313" lon="0.34299">
        <ele>104.490782</ele>
        <time>2019-08-05T16:01:19.618Z</time>
      </trkpt>
      <trkpt lat="46.52271" lon="0.34337">
        <ele>104.228008</ele>
        <time>2019-08-05T16:01:33.388Z</time>
      </trkpt>
      <trkpt lat="46.52242" lon="0.34342">
        <ele>103.660475</ele>
        <time>2019-08-05T16:01:41.308Z</time>
      </trkpt>
      <trkpt lat="46.52214" lon="0.34339">
        <ele>103.122498</ele>
        <time>2019-08-05T16:01:48.809Z</time>
      </trkpt>
      <trkpt lat="46.52174" lon="0.34324">
        <ele>102.317687</ele>
        <time>2019-08-05T16:01:55.200Z</time>
      </trkpt>
      <trkpt lat="46.52134" lon="0.34301">
        <ele>101.494723</ele>
        <time>2019-08-05T16:02:01.880Z</time>
      </trkpt>
      <trkpt lat="46.52015" lon="0.34334">
        <ele>102.749839</ele>
        <time>2019-08-05T16:02:26.100Z</time>
      </trkpt>
      <trkpt lat="46.5201" lon="0.34335">
        <ele>102.877606</ele>
        <time>2019-08-05T16:02:27.879Z</time>
      </trkpt>
      <trkpt lat="46.52002" lon="0.34347">
        <ele>103.143272</ele>
        <time>2019-08-05T16:02:32.293Z</time>
      </trkpt>
      <trkpt lat="46.51952" lon="0.34385">
        <ele>104.452711</ele>
        <time>2019-08-05T16:02:55.157Z</time>
      </trkpt>
      <trkpt lat="46.51924" lon="0.34407">
        <ele>105.437477</ele>
        <time>2019-08-05T16:03:10.174Z</time>
      </trkpt>
      <trkpt lat="46.51868" lon="0.34455">
        <ele>108.648053</ele>
        <time>2019-08-05T16:03:44.943Z</time>
      </trkpt>
      <trkpt lat="46.51798" lon="0.34526">
        <ele>112.872711</ele>
        <time>2019-08-05T16:04:23.831Z</time>
      </trkpt>
      <trkpt lat="46.51789" lon="0.34535">
        <ele>113.394379</ele>
        <time>2019-08-05T16:04:28.970Z</time>
      </trkpt>
      <trkpt lat="46.51762" lon="0.34553">
        <ele>114.122333</ele>
        <time>2019-08-05T16:04:37.833Z</time>
      </trkpt>
      <trkpt lat="46.51679" lon="0.34614">
        <ele>115.40785</ele>
        <time>2019-08-05T16:05:03.714Z</time>
      </trkpt>
      <trkpt lat="46.5163" lon="0.34662">
        <ele>116.218652</ele>
        <time>2019-08-05T16:05:15.875Z</time>
      </trkpt>
      <trkpt lat="46.5159" lon="0.34721">
        <ele>116.550431</ele>
        <time>2019-08-05T16:05:27.329Z</time>
      </trkpt>
      <trkpt lat="46.51556" lon="0.34759">
        <ele>116.750976</ele>
        <time>2019-08-05T16:05:36.263Z</time>
      </trkpt>
      <trkpt lat="46.51533" lon="0.34794">
        <ele>116.905974</ele>
        <time>2019-08-05T16:05:43.404Z</time>
      </trkpt>
      <trkpt lat="46.5151" lon="0.34842">
        <ele>117.089534</ele>
        <time>2019-08-05T16:05:53.217Z</time>
      </trkpt>
      <trkpt lat="46.51474" lon="0.34895">
        <ele>117.737894</ele>
        <time>2019-08-05T16:06:07.879Z</time>
      </trkpt>
      <trkpt lat="46.51429" lon="0.34944">
        <ele>118.594552</ele>
        <time>2019-08-05T16:06:24.196Z</time>
      </trkpt>
      <trkpt lat="46.51424" lon="0.3495">
        <ele>118.690627</ele>
        <time>2019-08-05T16:06:25.995Z</time>
      </trkpt>
      <trkpt lat="46.5141" lon="0.3497">
        <ele>118.998033</ele>
        <time>2019-08-05T16:06:31.728Z</time>
      </trkpt>
      <trkpt lat="46.51402" lon="0.34987">
        <ele>119.216075</ele>
        <time>2019-08-05T16:06:35.709Z</time>
      </trkpt>
      <trkpt lat="46.51375" lon="0.35015">
        <ele>119.717439</ele>
        <time>2019-08-05T16:06:44.503Z</time>
      </trkpt>
      <trkpt lat="46.51331" lon="0.35037">
        <ele>120.340748</ele>
        <time>2019-08-05T16:06:56.957Z</time>
      </trkpt>
      <trkpt lat="46.51327" lon="0.35038">
        <ele>120.401763</ele>
        <time>2019-08-05T16:06:58.776Z</time>
      </trkpt>
      <trkpt lat="46.51322" lon="0.35035">
        <ele>120.463377</ele>
        <time>2019-08-05T16:06:59.667Z</time>
      </trkpt>
      <trkpt lat="46.51269" lon="0.35027">
        <ele>121.141043</ele>
        <time>2019-08-05T16:07:14.706Z</time>
      </trkpt>
      <trkpt lat="46.51262" lon="0.35023">
        <ele>121.247167</ele>
        <time>2019-08-05T16:07:16.712Z</time>
      </trkpt>
      <trkpt lat="46.51262" lon="0.35021">
        <ele>121.264554</ele>
        <time>2019-08-05T16:07:17.092Z</time>
      </trkpt>
      <trkpt lat="46.51263" lon="0.35019">
        <ele>121.282833</ele>
        <time>2019-08-05T16:07:17.580Z</time>
      </trkpt>
      <trkpt lat="46.51263" lon="0.35017">
        <ele>121.299557</ele>
        <time>2019-08-05T16:07:18.031Z</time>
      </trkpt>
      <trkpt lat="46.51261" lon="0.35014">
        <ele>121.333875</ele>
        <time>2019-08-05T16:07:18.799Z</time>
      </trkpt>
      <trkpt lat="46.5126" lon="0.35013">
        <ele>121.351417</ele>
        <time>2019-08-05T16:07:19.027Z</time>
      </trkpt>
      <trkpt lat="46.51259" lon="0.35012">
        <ele>121.370602</ele>
        <time>2019-08-05T16:07:19.319Z</time>
      </trkpt>
      <trkpt lat="46.51253" lon="0.35017">
        <ele>121.456755</ele>
        <time>2019-08-05T16:07:20.922Z</time>
      </trkpt>
      <trkpt lat="46.51253" lon="0.3502">
        <ele>121.476063</ele>
        <time>2019-08-05T16:07:21.344Z</time>
      </trkpt>
      <trkpt lat="46.51245" lon="0.35021">
        <ele>121.584103</ele>
        <time>2019-08-05T16:07:23.617Z</time>
      </trkpt>
      <trkpt lat="46.51235" lon="0.35021">
        <ele>121.710369</ele>
        <time>2019-08-05T16:07:25.759Z</time>
      </trkpt>
      <trkpt lat="46.51218" lon="0.3502">
        <ele>121.930062</ele>
        <time>2019-08-05T16:07:29.534Z</time>
      </trkpt>
      <trkpt lat="46.51196" lon="0.35017">
        <ele>122.212453</ele>
        <time>2019-08-05T16:07:34.820Z</time>
      </trkpt>
      <trkpt lat="46.5116" lon="0.35011">
        <ele>122.605268</ele>
        <time>2019-08-05T16:07:42.712Z</time>
      </trkpt>
      <trkpt lat="46.51129" lon="0.35005">
        <ele>122.943498</ele>
        <time>2019-08-05T16:07:49.779Z</time>
      </trkpt>
      <trkpt lat="46.51108" lon="0.35002">
        <ele>123.167974</ele>
        <time>2019-08-05T16:07:54.655Z</time>
      </trkpt>
      <trkpt lat="46.51085" lon="0.35001">
        <ele>123.423254</ele>
        <time>2019-08-05T16:08:01.149Z</time>
      </trkpt>
      <trkpt lat="46.51076" lon="0.34993">
        <ele>123.533047</ele>
        <time>2019-08-05T16:08:03.540Z</time>
      </trkpt>
      <trkpt lat="46.51058" lon="0.34986">
        <ele>123.739374</ele>
        <time>2019-08-05T16:08:08.589Z</time>
      </trkpt>
      <trkpt lat="46.5105" lon="0.34985">
        <ele>123.827711</ele>
        <time>2019-08-05T16:08:11.192Z</time>
      </trkpt>
      <trkpt lat="46.5102" lon="0.35001">
        <ele>124.177322</ele>
        <time>2019-08-05T16:08:18.909Z</time>
      </trkpt>
      <trkpt lat="46.50967" lon="0.35045">
        <ele>125.12095</ele>
        <time>2019-08-05T16:08:34.811Z</time>
      </trkpt>
      <trkpt lat="46.50958" lon="0.35049">
        <ele>125.266503</ele>
        <time>2019-08-05T16:08:37.479Z</time>
      </trkpt>
      <trkpt lat="46.50951" lon="0.35053">
        <ele>125.376918</ele>
        <time>2019-08-05T16:08:39.593Z</time>
      </trkpt>
      <trkpt lat="46.50877" lon="0.3508">
        <ele>126.548751</ele>
        <time>2019-08-05T16:08:59.715Z</time>
      </trkpt>
      <trkpt lat="46.50867" lon="0.35081">
        <ele>126.713727</ele>
        <time>2019-08-05T16:09:02.556Z</time>
      </trkpt>
      <trkpt lat="46.50857" lon="0.35077">
        <ele>126.869907</ele>
        <time>2019-08-05T16:09:05.515Z</time>
      </trkpt>
      <trkpt lat="46.50827" lon="0.35058">
        <ele>127.553847</ele>
        <time>2019-08-05T16:09:14.915Z</time>
      </trkpt>
      <trkpt lat="46.50752" lon="0.35028">
        <ele>129.205187</ele>
        <time>2019-08-05T16:09:38.076Z</time>
      </trkpt>
      <trkpt lat="46.50729" lon="0.35008">
        <ele>129.778188</ele>
        <time>2019-08-05T16:09:46.385Z</time>
      </trkpt>
      <trkpt lat="46.50688" lon="0.34956">
        <ele>130.918383</ele>
        <time>2019-08-05T16:10:03.181Z</time>
      </trkpt>
      <trkpt lat="46.50682" lon="0.34946">
        <ele>131.095978</ele>
        <time>2019-08-05T16:10:05.997Z</time>
      </trkpt>
      <trkpt lat="46.50638" lon="0.34889">
        <ele>132.265738</ele>
        <time>2019-08-05T16:10:24.322Z</time>
      </trkpt>
      <trkpt lat="46.50597" lon="0.34821">
        <ele>133.487939</ele>
        <time>2019-08-05T16:10:43.098Z</time>
      </trkpt>
      <trkpt lat="46.50551" lon="0.34745">
        <ele>134.335744</ele>
        <time>2019-08-05T16:11:00.937Z</time>
      </trkpt>
      <trkpt lat="46.50517" lon="0.34687">
        <ele>134.419509</ele>
        <time>2019-08-05T16:11:12.371Z</time>
      </trkpt>
      <trkpt lat="46.50505" lon="0.34672">
        <ele>134.444843</ele>
        <time>2019-08-05T16:11:15.844Z</time>
      </trkpt>
      <trkpt lat="46.50495" lon="0.34666">
        <ele>134.461738</ele>
        <time>2019-08-05T16:11:17.977Z</time>
      </trkpt>
      <trkpt lat="46.50489" lon="0.34663">
        <ele>134.472156</ele>
        <time>2019-08-05T16:11:19.084Z</time>
      </trkpt>
      <trkpt lat="46.50363" lon="0.34613">
        <ele>133.512474</ele>
        <time>2019-08-05T16:11:41.681Z</time>
      </trkpt>
      <trkpt lat="46.50301" lon="0.34584">
        <ele>132.44916</ele>
        <time>2019-08-05T16:11:51.850Z</time>
      </trkpt>
      <trkpt lat="46.50251" lon="0.34556">
        <ele>131.532378</ele>
        <time>2019-08-05T16:11:59.997Z</time>
      </trkpt>
      <trkpt lat="46.50137" lon="0.34494">
        <ele>128.243177</ele>
        <time>2019-08-05T16:12:17.783Z</time>
      </trkpt>
      <trkpt lat="46.49935" lon="0.34423">
        <ele>123.389047</ele>
        <time>2019-08-05T16:12:48.656Z</time>
      </trkpt>
      <trkpt lat="46.49914" lon="0.34415">
        <ele>122.904779</ele>
        <time>2019-08-05T16:12:52.343Z</time>
      </trkpt>
      <trkpt lat="46.49904" lon="0.34408">
        <ele>122.825286</ele>
        <time>2019-08-05T16:12:54.192Z</time>
      </trkpt>
      <trkpt lat="46.49903" lon="0.34413">
        <ele>122.837035</ele>
        <time>2019-08-05T16:12:54.940Z</time>
      </trkpt>
      <trkpt lat="46.49899" lon="0.34416">
        <ele>122.851798</ele>
        <time>2019-08-05T16:12:56.090Z</time>
      </trkpt>
      <trkpt lat="46.49839" lon="0.34407">
        <ele>123.034254</ele>
        <time>2019-08-05T16:13:08.009Z</time>
      </trkpt>
      <trkpt lat="46.49814" lon="0.34411">
        <ele>123.110188</ele>
        <time>2019-08-05T16:13:13.723Z</time>
      </trkpt>
      <trkpt lat="46.49712" lon="0.3449">
        <ele>123.535364</ele>
        <time>2019-08-05T16:13:44.156Z</time>
      </trkpt>
      <trkpt lat="46.49495" lon="0.34617">
        <ele>123.902933</ele>
        <time>2019-08-05T16:14:34.818Z</time>
      </trkpt>
      <trkpt lat="46.49448" lon="0.34641">
        <ele>123.696499</ele>
        <time>2019-08-05T16:14:44.036Z</time>
      </trkpt>
      <trkpt lat="46.49438" lon="0.34646">
        <ele>123.656153</ele>
        <time>2019-08-05T16:14:45.822Z</time>
      </trkpt>
      <trkpt lat="46.49403" lon="0.34665">
        <ele>123.402577</ele>
        <time>2019-08-05T16:14:52.457Z</time>
      </trkpt>
      <trkpt lat="46.49222" lon="0.34766">
        <ele>120.053722</ele>
        <time>2019-08-05T16:15:25.008Z</time>
      </trkpt>
      <trkpt lat="46.49257" lon="0.34644">
        <ele>118.01746</ele>
        <time>2019-08-05T16:15:50.048Z</time>
      </trkpt>
      <trkpt lat="46.49085" lon="0.34462">
        <ele>112.318393</ele>
        <time>2019-08-05T16:16:46.299Z</time>
      </trkpt>
      <trkpt lat="46.48976" lon="0.34236">
        <ele>105.724781</ele>
        <time>2019-08-05T16:17:34.266Z</time>
      </trkpt>
      <trkpt lat="46.48951" lon="0.34165">
        <ele>104.219309</ele>
        <time>2019-08-05T16:17:48.397Z</time>
      </trkpt>
      <trkpt lat="46.48907" lon="0.34108">
        <ele>103.013476</ele>
        <time>2019-08-05T16:18:03.738Z</time>
      </trkpt>
      <trkpt lat="46.48785" lon="0.34045">
        <ele>101.444308</ele>
        <time>2019-08-05T16:18:41.467Z</time>
      </trkpt>
      <trkpt lat="46.48744" lon="0.34006">
        <ele>101.798007</ele>
        <time>2019-08-05T16:18:58.717Z</time>
      </trkpt>
      <trkpt lat="46.48734" lon="0.33998">
        <ele>101.878857</ele>
        <time>2019-08-05T16:19:02.767Z</time>
      </trkpt>
      <trkpt lat="46.48719" lon="0.33998">
        <ele>101.991884</ele>
        <time>2019-08-05T16:19:08.992Z</time>
      </trkpt>
      <trkpt lat="46.48688" lon="0.34004">
        <ele>102.214103</ele>
        <time>2019-08-05T16:19:20.937Z</time>
      </trkpt>
      <trkpt lat="46.4859" lon="0.3397">
        <ele>103.641172</ele>
        <time>2019-08-05T16:20:03.373Z</time>
      </trkpt>
      <trkpt lat="46.48481" lon="0.33888">
        <ele>105.724184</ele>
        <time>2019-08-05T16:20:52.933Z</time>
      </trkpt>
      <trkpt lat="46.48342" lon="0.33816">
        <ele>107.314407</ele>
        <time>2019-08-05T16:21:47.539Z</time>
      </trkpt>
      <trkpt lat="46.48253" lon="0.33778">
        <ele>108.243768</ele>
        <time>2019-08-05T16:22:19.700Z</time>
      </trkpt>
      <trkpt lat="46.48174" lon="0.33782">
        <ele>109.027198</ele>
        <time>2019-08-05T16:22:48.492Z</time>
      </trkpt>
      <trkpt lat="46.48088" lon="0.33774">
        <ele>110.586702</ele>
        <time>2019-08-05T16:23:23.041Z</time>
      </trkpt>
      <trkpt lat="46.48066" lon="0.33764">
        <ele>111.094091</ele>
        <time>2019-08-05T16:23:32.762Z</time>
      </trkpt>
      <trkpt lat="46.48063" lon="0.33762">
        <ele>111.186863</ele>
        <time>2019-08-05T16:23:34.428Z</time>
      </trkpt>
      <trkpt lat="46.48052" lon="0.33788">
        <ele>111.661154</ele>
        <time>2019-08-05T16:23:41.900Z</time>
      </trkpt>
      <trkpt lat="46.48034" lon="0.33847">
        <ele>112.667769</ele>
        <time>2019-08-05T16:23:56.651Z</time>
      </trkpt>
      <trkpt lat="46.48022" lon="0.33903">
        <ele>113.569629</ele>
        <time>2019-08-05T16:24:10.131Z</time>
      </trkpt>
      <trkpt lat="46.48013" lon="0.33946">
        <ele>114.224046</ele>
        <time>2019-08-05T16:24:20.993Z</time>
      </trkpt>
      <trkpt lat="46.47996" lon="0.34044">
        <ele>115.685966</ele>
        <time>2019-08-05T16:24:43.443Z</time>
      </trkpt>
      <trkpt lat="46.47958" lon="0.34348">
        <ele>119.342543</ele>
        <time>2019-08-05T16:25:41.927Z</time>
      </trkpt>
      <trkpt lat="46.47962" lon="0.34372">
        <ele>119.591244</ele>
        <time>2019-08-05T16:25:46.433Z</time>
      </trkpt>
      <trkpt lat="46.47665" lon="0.34329">
        <ele>124.454685</ele>
        <time>2019-08-05T16:27:48.238Z</time>
      </trkpt>
      <trkpt lat="46.47531" lon="0.34296">
        <ele>126.033677</ele>
        <time>2019-08-05T16:28:36.984Z</time>
      </trkpt>
      <trkpt lat="46.47367" lon="0.34262">
        <ele>127.862358</ele>
        <time>2019-08-05T16:29:36.333Z</time>
      </trkpt>
      <trkpt lat="46.47356" lon="0.34303">
        <ele>128.435094</ele>
        <time>2019-08-05T16:29:45.224Z</time>
      </trkpt>
      <trkpt lat="46.47312" lon="0.34404">
        <ele>129.971798</ele>
        <time>2019-08-05T16:30:11.544Z</time>
      </trkpt>
      <trkpt lat="46.47292" lon="0.3443">
        <ele>130.475173</ele>
        <time>2019-08-05T16:30:20.398Z</time>
      </trkpt>
      <trkpt lat="46.47221" lon="0.3449">
        <ele>131.89678</ele>
        <time>2019-08-05T16:30:46.404Z</time>
      </trkpt>
      <trkpt lat="46.47214" lon="0.34496">
        <ele>132.043889</ele>
        <time>2019-08-05T16:30:48.987Z</time>
      </trkpt>
      <trkpt lat="46.47121" lon="0.34575">
        <ele>133.652767</ele>
        <time>2019-08-05T16:31:17.941Z</time>
      </trkpt>
      <trkpt lat="46.47045" lon="0.34639">
        <ele>133.823628</ele>
        <time>2019-08-05T16:31:36.538Z</time>
      </trkpt>
      <trkpt lat="46.4703" lon="0.34625">
        <ele>133.857114</ele>
        <time>2019-08-05T16:31:41.946Z</time>
      </trkpt>
      <trkpt lat="46.46818" lon="0.34612">
        <ele>133.567582</ele>
        <time>2019-08-05T16:32:48.095Z</time>
      </trkpt>
      <trkpt lat="46.46815" lon="0.34574">
        <ele>133.498365</ele>
        <time>2019-08-05T16:32:56.299Z</time>
      </trkpt>
      <trkpt lat="46.46813" lon="0.34562">
        <ele>133.476821</ele>
        <time>2019-08-05T16:32:58.909Z</time>
      </trkpt>
      <trkpt lat="46.46799" lon="0.34552">
        <ele>133.437342</ele>
        <time>2019-08-05T16:33:03.615Z</time>
      </trkpt>
      <trkpt lat="46.46756" lon="0.34554">
        <ele>133.325348</ele>
        <time>2019-08-05T16:33:16.986Z</time>
      </trkpt>
      <trkpt lat="46.46673" lon="0.34573">
        <ele>133.10751</ele>
        <time>2019-08-05T16:33:43.069Z</time>
      </trkpt>
      <trkpt lat="46.46601" lon="0.34564">
        <ele>133.035351</ele>
        <time>2019-08-05T16:34:05.724Z</time>
      </trkpt>
      <trkpt lat="46.4644" lon="0.345">
        <ele>133.203797</ele>
        <time>2019-08-05T16:34:58.672Z</time>
      </trkpt>
      <trkpt lat="46.46353" lon="0.34496">
        <ele>133.699549</ele>
        <time>2019-08-05T16:35:27.918Z</time>
      </trkpt>
      <trkpt lat="46.46309" lon="0.34488">
        <ele>133.94849</ele>
        <time>2019-08-05T16:35:45.039Z</time>
      </trkpt>
      <trkpt lat="46.46248" lon="0.34474">
        <ele>134.294416</ele>
        <time>2019-08-05T16:36:08.186Z</time>
      </trkpt>
      <trkpt lat="46.4624" lon="0.34463">
        <ele>134.358554</ele>
        <time>2019-08-05T16:36:13.131Z</time>
      </trkpt>
      <trkpt lat="46.46221" lon="0.34446">
        <ele>134.482811</ele>
        <time>2019-08-05T16:36:20.102Z</time>
      </trkpt>
      <trkpt lat="46.46195" lon="0.34449">
        <ele>134.630286</ele>
        <time>2019-08-05T16:36:29.162Z</time>
      </trkpt>
      <trkpt lat="46.46141" lon="0.34441">
        <ele>134.937413</ele>
        <time>2019-08-05T16:36:47.986Z</time>
      </trkpt>
      <trkpt lat="46.46136" lon="0.3447">
        <ele>135.043691</ele>
        <time>2019-08-05T16:36:51.499Z</time>
      </trkpt>
      <trkpt lat="46.46121" lon="0.34537">
        <ele>134.57709</ele>
        <time>2019-08-05T16:37:00.909Z</time>
      </trkpt>
      <trkpt lat="46.46065" lon="0.34659">
        <ele>133.61443</ele>
        <time>2019-08-05T16:37:17.311Z</time>
      </trkpt>
      <trkpt lat="46.46044" lon="0.34688">
        <ele>133.331636</ele>
        <time>2019-08-05T16:37:22.086Z</time>
      </trkpt>
      <trkpt lat="46.45964" lon="0.3479">
        <ele>132.193583</ele>
        <time>2019-08-05T16:37:39.686Z</time>
      </trkpt>
      <trkpt lat="46.45911" lon="0.34753">
        <ele>131.559133</ele>
        <time>2019-08-05T16:37:57.252Z</time>
      </trkpt>
      <trkpt lat="46.45847" lon="0.34747">
        <ele>131.045686</ele>
        <time>2019-08-05T16:38:16.185Z</time>
      </trkpt>
      <trkpt lat="46.4562" lon="0.34608">
        <ele>129.195734</ele>
        <time>2019-08-05T16:39:29.829Z</time>
      </trkpt>
      <trkpt lat="46.45481" lon="0.34492">
        <ele>127.573187</ele>
        <time>2019-08-05T16:40:16.943Z</time>
      </trkpt>
      <trkpt lat="46.45335" lon="0.34397">
        <ele>125.690772</ele>
        <time>2019-08-05T16:41:02.441Z</time>
      </trkpt>
      <trkpt lat="46.45085" lon="0.34307">
        <ele>123.061249</ele>
        <time>2019-08-05T16:42:17.896Z</time>
      </trkpt>
      <trkpt lat="46.4508" lon="0.34305">
        <ele>123.019994</ele>
        <time>2019-08-05T16:42:19.192Z</time>
      </trkpt>
      <trkpt lat="46.44992" lon="0.34267">
        <ele>122.39009</ele>
        <time>2019-08-05T16:42:47.187Z</time>
      </trkpt>
      <trkpt lat="46.44778" lon="0.34108">
        <ele>120.949286</ele>
        <time>2019-08-05T16:43:59.503Z</time>
      </trkpt>
      <trkpt lat="46.44662" lon="0.34106">
        <ele>120.784575</ele>
        <time>2019-08-05T16:44:34.799Z</time>
      </trkpt>
      <trkpt lat="46.44615" lon="0.34105">
        <ele>120.866477</ele>
        <time>2019-08-05T16:44:49.962Z</time>
      </trkpt>
      <trkpt lat="46.44606" lon="0.34105">
        <ele>120.882295</ele>
        <time>2019-08-05T16:44:52.827Z</time>
      </trkpt>
      <trkpt lat="46.44596" lon="0.34104">
        <ele>120.899709</ele>
        <time>2019-08-05T16:44:56.218Z</time>
      </trkpt>
      <trkpt lat="46.44562" lon="0.34103">
        <ele>120.959477</ele>
        <time>2019-08-05T16:45:08.080Z</time>
      </trkpt>
      <trkpt lat="46.44188" lon="0.34096">
        <ele>126.31606</ele>
        <time>2019-08-05T16:47:36.074Z</time>
      </trkpt>
      <trkpt lat="46.44185" lon="0.34096">
        <ele>126.338239</ele>
        <time>2019-08-05T16:47:37.406Z</time>
      </trkpt>
      <trkpt lat="46.44178" lon="0.34097">
        <ele>126.389976</ele>
        <time>2019-08-05T16:47:40.063Z</time>
      </trkpt>
      <trkpt lat="46.44174" lon="0.34095">
        <ele>126.41893</ele>
        <time>2019-08-05T16:47:41.101Z</time>
      </trkpt>
      <trkpt lat="46.44158" lon="0.34094">
        <ele>126.534232</ele>
        <time>2019-08-05T16:47:45.104Z</time>
      </trkpt>
      <trkpt lat="46.44119" lon="0.34095">
        <ele>126.824527</ele>
        <time>2019-08-05T16:47:54.999Z</time>
      </trkpt>
      <trkpt lat="46.44068" lon="0.34094">
        <ele>127.198264</ele>
        <time>2019-08-05T16:48:07.031Z</time>
      </trkpt>
      <trkpt lat="46.44056" lon="0.34094">
        <ele>127.286901</ele>
        <time>2019-08-05T16:48:09.583Z</time>
      </trkpt>
      <trkpt lat="46.43998" lon="0.34093">
        <ele>127.593861</ele>
        <time>2019-08-05T16:48:21.963Z</time>
      </trkpt>
      <trkpt lat="46.43954" lon="0.34092">
        <ele>127.466891</ele>
        <time>2019-08-05T16:48:35.829Z</time>
      </trkpt>
      <trkpt lat="46.43921" lon="0.34083">
        <ele>127.370437</ele>
        <time>2019-08-05T16:48:46.190Z</time>
      </trkpt>
      <trkpt lat="46.4366" lon="0.3383">
        <ele>125.706836</ele>
        <time>2019-08-05T16:50:21.386Z</time>
      </trkpt>
      <trkpt lat="46.43613" lon="0.33815">
        <ele>125.248011</ele>
        <time>2019-08-05T16:50:35.724Z</time>
      </trkpt>
      <trkpt lat="46.43606" lon="0.33795">
        <ele>125.108018</ele>
        <time>2019-08-05T16:50:40.098Z</time>
      </trkpt>
      <trkpt lat="46.43583" lon="0.3382">
        <ele>124.83765</ele>
        <time>2019-08-05T16:50:48.465Z</time>
      </trkpt>
      <trkpt lat="46.4336" lon="0.3398">
        <ele>121.749815</ele>
        <time>2019-08-05T16:51:59.638Z</time>
      </trkpt>
      <trkpt lat="46.43235" lon="0.34083">
        <ele>119.775445</ele>
        <time>2019-08-05T16:52:40.342Z</time>
      </trkpt>
      <trkpt lat="46.43139" lon="0.34145">
        <ele>119.170974</ele>
        <time>2019-08-05T16:53:11.526Z</time>
      </trkpt>
      <trkpt lat="46.43125" lon="0.34148">
        <ele>119.106395</ele>
        <time>2019-08-05T16:53:15.730Z</time>
      </trkpt>
      <trkpt lat="46.43116" lon="0.3415">
        <ele>119.059087</ele>
        <time>2019-08-05T16:53:18.680Z</time>
      </trkpt>
      <trkpt lat="46.43117" lon="0.34144">
        <ele>119.037321</ele>
        <time>2019-08-05T16:53:19.601Z</time>
      </trkpt>
      <trkpt lat="46.43113" lon="0.34143">
        <ele>119.014836</ele>
        <time>2019-08-05T16:53:21.189Z</time>
      </trkpt>
      <trkpt lat="46.43102" lon="0.34141">
        <ele>118.962977</ele>
        <time>2019-08-05T16:53:24.650Z</time>
      </trkpt>
      <trkpt lat="46.43095" lon="0.34139">
        <ele>118.92949</ele>
        <time>2019-08-05T16:53:26.896Z</time>
      </trkpt>
      <trkpt lat="46.43074" lon="0.34128">
        <ele>118.822108</ele>
        <time>2019-08-05T16:53:34.173Z</time>
      </trkpt>
      <trkpt lat="46.42884" lon="0.34067">
        <ele>119.36539</ele>
        <time>2019-08-05T16:54:40.646Z</time>
      </trkpt>
      <trkpt lat="46.42679" lon="0.34067">
        <ele>118.464233</ele>
        <time>2019-08-05T16:55:42.963Z</time>
      </trkpt>
      <trkpt lat="46.42624" lon="0.34045">
        <ele>118.022928</ele>
        <time>2019-08-05T16:55:59.635Z</time>
      </trkpt>
      <trkpt lat="46.42529" lon="0.33983">
        <ele>117.330241</ele>
        <time>2019-08-05T16:56:30.543Z</time>
      </trkpt>
      <trkpt lat="46.42474" lon="0.33978">
        <ele>117.573584</ele>
        <time>2019-08-05T16:56:47.473Z</time>
      </trkpt>
      <trkpt lat="46.42348" lon="0.34031">
        <ele>118.389257</ele>
        <time>2019-08-05T16:57:34.491Z</time>
      </trkpt>
      <trkpt lat="46.42133" lon="0.34129">
        <ele>122.872723</ele>
        <time>2019-08-05T16:59:10.749Z</time>
      </trkpt>
      <trkpt lat="46.4212" lon="0.34136">
        <ele>123.159211</ele>
        <time>2019-08-05T16:59:17.350Z</time>
      </trkpt>
      <trkpt lat="46.42045" lon="0.34176">
        <ele>124.752076</ele>
        <time>2019-08-05T16:59:50.674Z</time>
      </trkpt>
      <trkpt lat="46.41831" lon="0.34336">
        <ele>127.928889</ele>
        <time>2019-08-05T17:01:23.374Z</time>
      </trkpt>
      <trkpt lat="46.41811" lon="0.34358">
        <ele>128.101916</ele>
        <time>2019-08-05T17:01:32.397Z</time>
      </trkpt>
      <trkpt lat="46.41778" lon="0.34374">
        <ele>128.336408</ele>
        <time>2019-08-05T17:01:44.708Z</time>
      </trkpt>
      <trkpt lat="46.41774" lon="0.34387">
        <ele>128.405906</ele>
        <time>2019-08-05T17:01:48.669Z</time>
      </trkpt>
      <trkpt lat="46.41769" lon="0.34425">
        <ele>128.588731</ele>
        <time>2019-08-05T17:01:54.670Z</time>
      </trkpt>
      <trkpt lat="46.41763" lon="0.34439">
        <ele>128.664258</ele>
        <time>2019-08-05T17:01:57.541Z</time>
      </trkpt>
      <trkpt lat="46.4173" lon="0.34851">
        <ele>128.257868</ele>
        <time>2019-08-05T17:02:53.648Z</time>
      </trkpt>
      <trkpt lat="46.41774" lon="0.35018">
        <ele>127.807709</ele>
        <time>2019-08-05T17:03:16.650Z</time>
      </trkpt>
      <trkpt lat="46.41791" lon="0.35112">
        <ele>128.026912</ele>
        <time>2019-08-05T17:03:30.031Z</time>
      </trkpt>
      <trkpt lat="46.41759" lon="0.35095">
        <ele>128.139339</ele>
        <time>2019-08-05T17:03:41.464Z</time>
      </trkpt>
      <trkpt lat="46.4161" lon="0.35056">
        <ele>129.434017</ele>
        <time>2019-08-05T17:04:37.756Z</time>
      </trkpt>
      <trkpt lat="46.41531" lon="0.35062">
        <ele>130.435612</ele>
        <time>2019-08-05T17:05:08.402Z</time>
      </trkpt>
      <trkpt lat="46.41404" lon="0.35111">
        <ele>132.158858</ele>
        <time>2019-08-05T17:05:59.822Z</time>
      </trkpt>
      <trkpt lat="46.41355" lon="0.35118">
        <ele>132.812518</ele>
        <time>2019-08-05T17:06:18.742Z</time>
      </trkpt>
      <trkpt lat="46.41264" lon="0.35104">
        <ele>133.526184</ele>
        <time>2019-08-05T17:06:51.870Z</time>
      </trkpt>
      <trkpt lat="46.41202" lon="0.35109">
        <ele>133.953539</ele>
        <time>2019-08-05T17:07:13.289Z</time>
      </trkpt>
      <trkpt lat="46.41059" lon="0.35127">
        <ele>134.645769</ele>
        <time>2019-08-05T17:08:00.996Z</time>
      </trkpt>
      <trkpt lat="46.41028" lon="0.35127">
        <ele>134.771266</ele>
        <time>2019-08-05T17:08:11.516Z</time>
      </trkpt>
      <trkpt lat="46.40973" lon="0.35098">
        <ele>135.019784</ele>
        <time>2019-08-05T17:08:31.447Z</time>
      </trkpt>
      <trkpt lat="46.4085" lon="0.34999">
        <ele>135.750767</ele>
        <time>2019-08-05T17:09:20.606Z</time>
      </trkpt>
      <trkpt lat="46.40783" lon="0.34907">
        <ele>135.807615</ele>
        <time>2019-08-05T17:09:51.699Z</time>
      </trkpt>
      <trkpt lat="46.40711" lon="0.34835">
        <ele>135.697224</ele>
        <time>2019-08-05T17:10:18.981Z</time>
      </trkpt>
      <trkpt lat="46.40597" lon="0.34758">
        <ele>134.415183</ele>
        <time>2019-08-05T17:10:56.044Z</time>
      </trkpt>
      <trkpt lat="46.40508" lon="0.34719">
        <ele>133.125257</ele>
        <time>2019-08-05T17:11:22.060Z</time>
      </trkpt>
      <trkpt lat="46.40441" lon="0.34699">
        <ele>131.629153</ele>
        <time>2019-08-05T17:11:40.582Z</time>
      </trkpt>
      <trkpt lat="46.40403" lon="0.34668">
        <ele>130.667847</ele>
        <time>2019-08-05T17:11:52.349Z</time>
      </trkpt>
      <trkpt lat="46.40286" lon="0.34547">
        <ele>127.554378</ele>
        <time>2019-08-05T17:12:30.958Z</time>
      </trkpt>
      <trkpt lat="46.40212" lon="0.34508">
        <ele>125.877822</ele>
        <time>2019-08-05T17:12:52.414Z</time>
      </trkpt>
      <trkpt lat="46.40209" lon="0.34506">
        <ele>125.800229</ele>
        <time>2019-08-05T17:12:53.271Z</time>
      </trkpt>
      <trkpt lat="46.40207" lon="0.3451">
        <ele>125.730969</ele>
        <time>2019-08-05T17:12:53.798Z</time>
      </trkpt>
      <trkpt lat="46.40086" lon="0.34737">
        <ele>122.620824</ele>
        <time>2019-08-05T17:13:26.400Z</time>
      </trkpt>
      <trkpt lat="46.40077" lon="0.3473">
        <ele>122.308934</ele>
        <time>2019-08-05T17:13:28.095Z</time>
      </trkpt>
      <trkpt lat="46.40043" lon="0.34699">
        <ele>121.048032</ele>
        <time>2019-08-05T17:13:34.547Z</time>
      </trkpt>
      <trkpt lat="46.40033" lon="0.3469">
        <ele>120.6538</ele>
        <time>2019-08-05T17:13:36.766Z</time>
      </trkpt>
      <trkpt lat="46.40023" lon="0.34681">
        <ele>120.313343</ele>
        <time>2019-08-05T17:13:38.354Z</time>
      </trkpt>
      <trkpt lat="46.40018" lon="0.34676">
        <ele>120.114471</ele>
        <time>2019-08-05T17:13:39.210Z</time>
      </trkpt>
      <trkpt lat="46.39964" lon="0.34615">
        <ele>117.950397</ele>
        <time>2019-08-05T17:13:49.587Z</time>
      </trkpt>
      <trkpt lat="46.39951" lon="0.34588">
        <ele>117.202358</ele>
        <time>2019-08-05T17:13:53.003Z</time>
      </trkpt>
      <trkpt lat="46.3995" lon="0.34581">
        <ele>116.928744</ele>
        <time>2019-08-05T17:13:53.789Z</time>
      </trkpt>
      <trkpt lat="46.39944" lon="0.34568">
        <ele>116.41049</ele>
        <time>2019-08-05T17:13:55.167Z</time>
      </trkpt>
      <trkpt lat="46.39918" lon="0.3454">
        <ele>114.748699</ele>
        <time>2019-08-05T17:13:59.769Z</time>
      </trkpt>
      <trkpt lat="46.39845" lon="0.34504">
        <ele>110.897041</ele>
        <time>2019-08-05T17:14:10.363Z</time>
      </trkpt>
      <trkpt lat="46.39813" lon="0.34451">
        <ele>108.463376</ele>
        <time>2019-08-05T17:14:17.292Z</time>
      </trkpt>
      <trkpt lat="46.39801" lon="0.34441">
        <ele>108.087509</ele>
        <time>2019-08-05T17:14:19.297Z</time>
      </trkpt>
      <trkpt lat="46.39787" lon="0.34433">
        <ele>107.812871</ele>
        <time>2019-08-05T17:14:21.680Z</time>
      </trkpt>
      <trkpt lat="46.39775" lon="0.34425">
        <ele>107.565845</ele>
        <time>2019-08-05T17:14:23.667Z</time>
      </trkpt>
      <trkpt lat="46.39763" lon="0.34418">
        <ele>107.324982</ele>
        <time>2019-08-05T17:14:25.624Z</time>
      </trkpt>
      <trkpt lat="46.39745" lon="0.34408">
        <ele>106.95688</ele>
        <time>2019-08-05T17:14:29.018Z</time>
      </trkpt>
      <trkpt lat="46.39727" lon="0.34397">
        <ele>106.594724</ele>
        <time>2019-08-05T17:14:32.133Z</time>
      </trkpt>
      <trkpt lat="46.39714" lon="0.34389">
        <ele>106.338572</ele>
        <time>2019-08-05T17:14:34.739Z</time>
      </trkpt>
      <trkpt lat="46.39702" lon="0.34382">
        <ele>106.103375</ele>
        <time>2019-08-05T17:14:36.625Z</time>
      </trkpt>
      <trkpt lat="46.39691" lon="0.34373">
        <ele>105.864213</ele>
        <time>2019-08-05T17:14:39.286Z</time>
      </trkpt>
      <trkpt lat="46.39664" lon="0.34319">
        <ele>105.00913</ele>
        <time>2019-08-05T17:14:47.849Z</time>
      </trkpt>
      <trkpt lat="46.39649" lon="0.34307">
        <ele>105.148104</ele>
        <time>2019-08-05T17:14:51.973Z</time>
      </trkpt>
      <trkpt lat="46.39641" lon="0.34301">
        <ele>105.294251</ele>
        <time>2019-08-05T17:14:54.623Z</time>
      </trkpt>
      <trkpt lat="46.39634" lon="0.34295">
        <ele>105.426692</ele>
        <time>2019-08-05T17:14:56.625Z</time>
      </trkpt>
      <trkpt lat="46.39624" lon="0.34287">
        <ele>105.616628</ele>
        <time>2019-08-05T17:14:59.076Z</time>
      </trkpt>
      <trkpt lat="46.39609" lon="0.3428">
        <ele>105.865545</ele>
        <time>2019-08-05T17:15:03.760Z</time>
      </trkpt>
      <trkpt lat="46.39605" lon="0.34279">
        <ele>105.927958</ele>
        <time>2019-08-05T17:15:04.819Z</time>
      </trkpt>
      <trkpt lat="46.39601" lon="0.34279">
        <ele>105.992836</ele>
        <time>2019-08-05T17:15:05.910Z</time>
      </trkpt>
      <trkpt lat="46.39596" lon="0.3428">
        <ele>106.074376</ele>
        <time>2019-08-05T17:15:07.121Z</time>
      </trkpt>
      <trkpt lat="46.39579" lon="0.34282">
        <ele>106.365391</ele>
        <time>2019-08-05T17:15:12.392Z</time>
      </trkpt>
      <trkpt lat="46.39576" lon="0.34282">
        <ele>106.40767</ele>
        <time>2019-08-05T17:15:13.297Z</time>
      </trkpt>
      <trkpt lat="46.39523" lon="0.34311">
        <ele>107.330476</ele>
        <time>2019-08-05T17:15:30.906Z</time>
      </trkpt>
      <trkpt lat="46.39518" lon="0.34312">
        <ele>107.400091</ele>
        <time>2019-08-05T17:15:31.958Z</time>
      </trkpt>
      <trkpt lat="46.39516" lon="0.34313">
        <ele>107.442252</ele>
        <time>2019-08-05T17:15:33.098Z</time>
      </trkpt>
      <trkpt lat="46.39486" lon="0.34308">
        <ele>107.99296</ele>
        <time>2019-08-05T17:15:42.642Z</time>
      </trkpt>
      <trkpt lat="46.39476" lon="0.34298">
        <ele>108.34392</ele>
        <time>2019-08-05T17:15:47.132Z</time>
      </trkpt>
      <trkpt lat="46.39454" lon="0.34273">
        <ele>109.14946</ele>
        <time>2019-08-05T17:15:56.197Z</time>
      </trkpt>
      <trkpt lat="46.39433" lon="0.34248">
        <ele>109.908896</ele>
        <time>2019-08-05T17:16:05.840Z</time>
      </trkpt>
      <trkpt lat="46.39366" lon="0.34172">
        <ele>112.331563</ele>
        <time>2019-08-05T17:16:35.809Z</time>
      </trkpt>
      <trkpt lat="46.3936" lon="0.34167">
        <ele>112.525021</ele>
        <time>2019-08-05T17:16:39.048Z</time>
      </trkpt>
      <trkpt lat="46.39353" lon="0.34163">
        <ele>112.74749</ele>
        <time>2019-08-05T17:16:42.013Z</time>
      </trkpt>
      <trkpt lat="46.39053" lon="0.34021">
        <ele>120.08262</ele>
        <time>2019-08-05T17:18:23.369Z</time>
      </trkpt>
      <trkpt lat="46.38878" lon="0.33872">
        <ele>122.828608</ele>
        <time>2019-08-05T17:19:18.297Z</time>
      </trkpt>
      <trkpt lat="46.38829" lon="0.33817">
        <ele>123.31518</ele>
        <time>2019-08-05T17:19:31.139Z</time>
      </trkpt>
      <trkpt lat="46.38702" lon="0.33626">
        <ele>124.743952</ele>
        <time>2019-08-05T17:20:12.114Z</time>
      </trkpt>
      <trkpt lat="46.38673" lon="0.33612">
        <ele>125.351534</ele>
        <time>2019-08-05T17:20:20.699Z</time>
      </trkpt>
      <trkpt lat="46.3864" lon="0.33594">
        <ele>126.034918</ele>
        <time>2019-08-05T17:20:31.446Z</time>
      </trkpt>
      <trkpt lat="46.38635" lon="0.33591">
        <ele>126.141614</ele>
        <time>2019-08-05T17:20:33.720Z</time>
      </trkpt>
      <trkpt lat="46.3842" lon="0.3358">
        <ele>131.055325</ele>
        <time>2019-08-05T17:21:47.494Z</time>
      </trkpt>
      <trkpt lat="46.38163" lon="0.33567">
        <ele>134.252404</ele>
        <time>2019-08-05T17:22:56.797Z</time>
      </trkpt>
      <trkpt lat="46.37987" lon="0.3356">
        <ele>133.120586</ele>
        <time>2019-08-05T17:23:29.477Z</time>
      </trkpt>
      <trkpt lat="46.37865" lon="0.33555">
        <ele>130.326372</ele>
        <time>2019-08-05T17:23:48.534Z</time>
      </trkpt>
      <trkpt lat="46.37836" lon="0.33559">
        <ele>129.632309</ele>
        <time>2019-08-05T17:23:52.999Z</time>
      </trkpt>
      <trkpt lat="46.37762" lon="0.33618">
        <ele>127.436736</ele>
        <time>2019-08-05T17:24:05.889Z</time>
      </trkpt>
      <trkpt lat="46.37742" lon="0.3362">
        <ele>126.907763</ele>
        <time>2019-08-05T17:24:09.080Z</time>
      </trkpt>
      <trkpt lat="46.37635" lon="0.33484">
        <ele>124.128824</ele>
        <time>2019-08-05T17:24:32.751Z</time>
      </trkpt>
      <trkpt lat="46.37546" lon="0.33543">
        <ele>122.810032</ele>
        <time>2019-08-05T17:24:50.206Z</time>
      </trkpt>
      <trkpt lat="46.37475" lon="0.33544">
        <ele>122.37444</ele>
        <time>2019-08-05T17:25:03.225Z</time>
      </trkpt>
      <trkpt lat="46.37399" lon="0.33531">
        <ele>121.96693</ele>
        <time>2019-08-05T17:25:17.809Z</time>
      </trkpt>
      <trkpt lat="46.37324" lon="0.33543">
        <ele>121.867726</ele>
        <time>2019-08-05T17:25:32.624Z</time>
      </trkpt>
      <trkpt lat="46.37227" lon="0.33614">
        <ele>122.201724</ele>
        <time>2019-08-05T17:25:56.153Z</time>
      </trkpt>
      <trkpt lat="46.37178" lon="0.33621">
        <ele>122.483105</ele>
        <time>2019-08-05T17:26:08.095Z</time>
      </trkpt>
      <trkpt lat="46.37141" lon="0.3361">
        <ele>122.958867</ele>
        <time>2019-08-05T17:26:17.872Z</time>
      </trkpt>
      <trkpt lat="46.37124" lon="0.33614">
        <ele>123.182686</ele>
        <time>2019-08-05T17:26:22.583Z</time>
      </trkpt>
      <trkpt lat="46.37083" lon="0.3369">
        <ele>124.018136</ele>
        <time>2019-08-05T17:26:40.595Z</time>
      </trkpt>
      <trkpt lat="46.37027" lon="0.33765">
        <ele>124.959251</ele>
        <time>2019-08-05T17:27:01.893Z</time>
      </trkpt>
      <trkpt lat="46.36925" lon="0.33857">
        <ele>126.380616</ele>
        <time>2019-08-05T17:27:33.558Z</time>
      </trkpt>
      <trkpt lat="46.36911" lon="0.33876">
        <ele>126.611195</ele>
        <time>2019-08-05T17:27:38.306Z</time>
      </trkpt>
      <trkpt lat="46.36881" lon="0.33942">
        <ele>126.873244</ele>
        <time>2019-08-05T17:27:51.023Z</time>
      </trkpt>
      <trkpt lat="46.36869" lon="0.34">
        <ele>127.023093</ele>
        <time>2019-08-05T17:28:00.510Z</time>
      </trkpt>
      <trkpt lat="46.36781" lon="0.34229">
        <ele>127.35869</ele>
        <time>2019-08-05T17:28:37.599Z</time>
      </trkpt>
      <trkpt lat="46.36779" lon="0.34238">
        <ele>127.359289</ele>
        <time>2019-08-05T17:28:38.984Z</time>
      </trkpt>
      <trkpt lat="46.36778" lon="0.34245">
        <ele>127.359687</ele>
        <time>2019-08-05T17:28:39.845Z</time>
      </trkpt>
      <trkpt lat="46.36773" lon="0.34245">
        <ele>127.360099</ele>
        <time>2019-08-05T17:28:41.061Z</time>
      </trkpt>
      <trkpt lat="46.36711" lon="0.34262">
        <ele>127.365672</ele>
        <time>2019-08-05T17:28:58.096Z</time>
      </trkpt>
      <trkpt lat="46.36705" lon="0.34261">
        <ele>127.366137</ele>
        <time>2019-08-05T17:28:59.333Z</time>
      </trkpt>
      <trkpt lat="46.36702" lon="0.34262">
        <ele>127.366456</ele>
        <time>2019-08-05T17:29:00.283Z</time>
      </trkpt>
      <trkpt lat="46.36628" lon="0.3428">
        <ele>126.820165</ele>
        <time>2019-08-05T17:29:14.579Z</time>
      </trkpt>
      <trkpt lat="46.36621" lon="0.34286">
        <ele>126.756664</ele>
        <time>2019-08-05T17:29:16.434Z</time>
      </trkpt>
      <trkpt lat="46.36577" lon="0.34285">
        <ele>126.423625</ele>
        <time>2019-08-05T17:29:24.630Z</time>
      </trkpt>
      <trkpt lat="46.36544" lon="0.34269">
        <ele>126.16376</ele>
        <time>2019-08-05T17:29:30.810Z</time>
      </trkpt>
      <trkpt lat="46.36539" lon="0.34267">
        <ele>126.126051</ele>
        <time>2019-08-05T17:29:31.775Z</time>
      </trkpt>
      <trkpt lat="46.36524" lon="0.34261">
        <ele>126.003981</ele>
        <time>2019-08-05T17:29:34.178Z</time>
      </trkpt>
      <trkpt lat="46.36405" lon="0.34165">
        <ele>123.161079</ele>
        <time>2019-08-05T17:29:56.550Z</time>
      </trkpt>
      <trkpt lat="46.36401" lon="0.34153">
        <ele>122.977699</ele>
        <time>2019-08-05T17:29:57.810Z</time>
      </trkpt>
      <trkpt lat="46.36354" lon="0.34292">
        <ele>121.021803</ele>
        <time>2019-08-05T17:30:27.279Z</time>
      </trkpt>
      <trkpt lat="46.36314" lon="0.34363">
        <ele>119.949551</ele>
        <time>2019-08-05T17:30:45.013Z</time>
      </trkpt>
      <trkpt lat="46.36261" lon="0.34608">
        <ele>117.888548</ele>
        <time>2019-08-05T17:31:36.180Z</time>
      </trkpt>
      <trkpt lat="46.36231" lon="0.34699">
        <ele>117.562039</ele>
        <time>2019-08-05T17:31:57.063Z</time>
      </trkpt>
      <trkpt lat="46.36232" lon="0.34777">
        <ele>117.884916</ele>
        <time>2019-08-05T17:32:15.121Z</time>
      </trkpt>
      <trkpt lat="46.36172" lon="0.34862">
        <ele>118.386985</ele>
        <time>2019-08-05T17:32:46.228Z</time>
      </trkpt>
      <trkpt lat="46.36162" lon="0.349">
        <ele>118.617671</ele>
        <time>2019-08-05T17:32:56.665Z</time>
      </trkpt>
      <trkpt lat="46.36147" lon="0.34907">
        <ele>118.838164</ele>
        <time>2019-08-05T17:33:03.316Z</time>
      </trkpt>
      <trkpt lat="46.36069" lon="0.34915">
        <ele>119.909585</ele>
        <time>2019-08-05T17:33:34.453Z</time>
      </trkpt>
      <trkpt lat="46.36042" lon="0.3493">
        <ele>120.303836</ele>
        <time>2019-08-05T17:33:45.848Z</time>
      </trkpt>
      <trkpt lat="46.35975" lon="0.34984">
        <ele>121.135314</ele>
        <time>2019-08-05T17:34:14.316Z</time>
      </trkpt>
      <trkpt lat="46.35885" lon="0.35108">
        <ele>121.832215</ele>
        <time>2019-08-05T17:34:56.901Z</time>
      </trkpt>
      <trkpt lat="46.3586" lon="0.35126">
        <ele>121.986331</ele>
        <time>2019-08-05T17:35:06.090Z</time>
      </trkpt>
      <trkpt lat="46.35712" lon="0.352">
        <ele>122.563109</ele>
        <time>2019-08-05T17:35:58.528Z</time>
      </trkpt>
      <trkpt lat="46.35672" lon="0.35228">
        <ele>122.775822</ele>
        <time>2019-08-05T17:36:13.366Z</time>
      </trkpt>
      <trkpt lat="46.35561" lon="0.35348">
        <ele>123.636994</ele>
        <time>2019-08-05T17:37:01.947Z</time>
      </trkpt>
      <trkpt lat="46.35439" lon="0.35433">
        <ele>124.40002</ele>
        <time>2019-08-05T17:37:49.730Z</time>
      </trkpt>
      <trkpt lat="46.35419" lon="0.3543">
        <ele>124.510549</ele>
        <time>2019-08-05T17:37:56.568Z</time>
      </trkpt>
      <trkpt lat="46.35402" lon="0.35428">
        <ele>124.60935</ele>
        <time>2019-08-05T17:38:02.512Z</time>
      </trkpt>
      <trkpt lat="46.3537" lon="0.35423">
        <ele>124.762234</ele>
        <time>2019-08-05T17:38:12.844Z</time>
      </trkpt>
      <trkpt lat="46.35328" lon="0.35427">
        <ele>124.789529</ele>
        <time>2019-08-05T17:38:26.524Z</time>
      </trkpt>
      <trkpt lat="46.35252" lon="0.35482">
        <ele>124.84433</ele>
        <time>2019-08-05T17:38:53.495Z</time>
      </trkpt>
      <trkpt lat="46.35213" lon="0.35525">
        <ele>124.876796</ele>
        <time>2019-08-05T17:39:08.863Z</time>
      </trkpt>
      <trkpt lat="46.35205" lon="0.35553">
        <ele>124.948792</ele>
        <time>2019-08-05T17:39:15.513Z</time>
      </trkpt>
      <trkpt lat="46.3521" lon="0.3561">
        <ele>125.08462</ele>
        <time>2019-08-05T17:39:28.488Z</time>
      </trkpt>
      <trkpt lat="46.3528" lon="0.35882">
        <ele>125.912389</ele>
        <time>2019-08-05T17:40:37.517Z</time>
      </trkpt>
      <trkpt lat="46.35308" lon="0.36009">
        <ele>126.386272</ele>
        <time>2019-08-05T17:41:09.259Z</time>
      </trkpt>
      <trkpt lat="46.35313" lon="0.36021">
        <ele>126.441997</ele>
        <time>2019-08-05T17:41:12.525Z</time>
      </trkpt>
      <trkpt lat="46.35353" lon="0.36129">
        <ele>127.010243</ele>
        <time>2019-08-05T17:41:41.622Z</time>
      </trkpt>
      <trkpt lat="46.35409" lon="0.3637">
        <ele>128.413325</ele>
        <time>2019-08-05T17:42:44.584Z</time>
      </trkpt>
      <trkpt lat="46.35412" lon="0.36408">
        <ele>128.658226</ele>
        <time>2019-08-05T17:42:54.388Z</time>
      </trkpt>
      <trkpt lat="46.35447" lon="0.36547">
        <ele>129.459113</ele>
        <time>2019-08-05T17:43:32.805Z</time>
      </trkpt>
      <trkpt lat="46.35496" lon="0.36691">
        <ele>129.965697</ele>
        <time>2019-08-05T17:44:11.485Z</time>
      </trkpt>
      <trkpt lat="46.35362" lon="0.36999">
        <ele>128.947763</ele>
        <time>2019-08-05T17:45:28.157Z</time>
      </trkpt>
      <trkpt lat="46.35279" lon="0.37087">
        <ele>127.884406</ele>
        <time>2019-08-05T17:45:57.711Z</time>
      </trkpt>
      <trkpt lat="46.35249" lon="0.37127">
        <ele>127.459197</ele>
        <time>2019-08-05T17:46:09.435Z</time>
      </trkpt>
      <trkpt lat="46.3517" lon="0.37293">
        <ele>125.622265</ele>
        <time>2019-08-05T17:46:49.230Z</time>
      </trkpt>
      <trkpt lat="46.35051" lon="0.37517">
        <ele>123.286805</ele>
        <time>2019-08-05T17:47:45.364Z</time>
      </trkpt>
      <trkpt lat="46.34965" lon="0.3775">
        <ele>121.931597</ele>
        <time>2019-08-05T17:48:39.930Z</time>
      </trkpt>
      <trkpt lat="46.3492" lon="0.3783">
        <ele>121.766614</ele>
        <time>2019-08-05T17:48:53.701Z</time>
      </trkpt>
      <trkpt lat="46.34982" lon="0.37977">
        <ele>121.772787</ele>
        <time>2019-08-05T17:49:17.653Z</time>
      </trkpt>
      <trkpt lat="46.34979" lon="0.37981">
        <ele>121.772988</ele>
        <time>2019-08-05T17:49:18.864Z</time>
      </trkpt>
      <trkpt lat="46.34971" lon="0.38">
        <ele>121.754633</ele>
        <time>2019-08-05T17:49:22.201Z</time>
      </trkpt>
      <trkpt lat="46.34906" lon="0.38176">
        <ele>121.169053</ele>
        <time>2019-08-05T17:49:49.159Z</time>
      </trkpt>
      <trkpt lat="46.34904" lon="0.38184">
        <ele>121.143221</ele>
        <time>2019-08-05T17:49:50.096Z</time>
      </trkpt>
      <trkpt lat="46.34881" lon="0.38219">
        <ele>120.993895</ele>
        <time>2019-08-05T17:49:56.253Z</time>
      </trkpt>
      <trkpt lat="46.34879" lon="0.38222">
        <ele>120.945852</ele>
        <time>2019-08-05T17:49:56.677Z</time>
      </trkpt>
      <trkpt lat="46.34854" lon="0.38253">
        <ele>120.421409</ele>
        <time>2019-08-05T17:50:02.630Z</time>
      </trkpt>
      <trkpt lat="46.3475" lon="0.38451">
        <ele>117.922121</ele>
        <time>2019-08-05T17:50:31.286Z</time>
      </trkpt>
      <trkpt lat="46.34746" lon="0.3846">
        <ele>117.857916</ele>
        <time>2019-08-05T17:50:32.451Z</time>
      </trkpt>
      <trkpt lat="46.34732" lon="0.38489">
        <ele>117.644282</ele>
        <time>2019-08-05T17:50:37.035Z</time>
      </trkpt>
      <trkpt lat="46.3474" lon="0.38511">
        <ele>117.500607</ele>
        <time>2019-08-05T17:50:39.966Z</time>
      </trkpt>
      <trkpt lat="46.34755" lon="0.38564">
        <ele>117.153268</ele>
        <time>2019-08-05T17:50:47.406Z</time>
      </trkpt>
      <trkpt lat="46.34764" lon="0.38591">
        <ele>116.976638</ele>
        <time>2019-08-05T17:50:51.491Z</time>
      </trkpt>
      <trkpt lat="46.34764" lon="0.38606">
        <ele>116.883083</ele>
        <time>2019-08-05T17:50:54.621Z</time>
      </trkpt>
      <trkpt lat="46.34752" lon="0.38667">
        <ele>116.61095</ele>
        <time>2019-08-05T17:51:08.081Z</time>
      </trkpt>
      <trkpt lat="46.34718" lon="0.38763">
        <ele>116.600785</ele>
        <time>2019-08-05T17:51:32.568Z</time>
      </trkpt>
      <trkpt lat="46.34698" lon="0.38839">
        <ele>116.593175</ele>
        <time>2019-08-05T17:51:50.202Z</time>
      </trkpt>
      <trkpt lat="46.347" lon="0.38866">
        <ele>116.590564</ele>
        <time>2019-08-05T17:51:56.219Z</time>
      </trkpt>
      <trkpt lat="46.34728" lon="0.3896">
        <ele>116.975458</ele>
        <time>2019-08-05T17:52:18.977Z</time>
      </trkpt>
      <trkpt lat="46.34746" lon="0.38999">
        <ele>117.213874</ele>
        <time>2019-08-05T17:52:29.750Z</time>
      </trkpt>
      <trkpt lat="46.34785" lon="0.39047">
        <ele>117.59565</ele>
        <time>2019-08-05T17:52:48.427Z</time>
      </trkpt>
      <trkpt lat="46.34793" lon="0.39064">
        <ele>117.702422</ele>
        <time>2019-08-05T17:52:53.691Z</time>
      </trkpt>
      <trkpt lat="46.34798" lon="0.39159">
        <ele>118.48801</ele>
        <time>2019-08-05T17:53:20.200Z</time>
      </trkpt>
      <trkpt lat="46.3482" lon="0.39235">
        <ele>119.38059</ele>
        <time>2019-08-05T17:53:42.921Z</time>
      </trkpt>
      <trkpt lat="46.3482" lon="0.3924">
        <ele>119.443752</ele>
        <time>2019-08-05T17:53:45.186Z</time>
      </trkpt>
      <trkpt lat="46.34823" lon="0.39242">
        <ele>119.492517</ele>
        <time>2019-08-05T17:53:45.988Z</time>
      </trkpt>
      <trkpt lat="46.34835" lon="0.39247">
        <ele>119.694001</ele>
        <time>2019-08-05T17:53:49.178Z</time>
      </trkpt>
      <trkpt lat="46.34834" lon="0.39259">
        <ele>119.823851</ele>
        <time>2019-08-05T17:53:52.717Z</time>
      </trkpt>
      <trkpt lat="46.34816" lon="0.39366">
        <ele>120.912581</ele>
        <time>2019-08-05T17:54:22.762Z</time>
      </trkpt>
      <trkpt lat="46.34784" lon="0.39497">
        <ele>121.788378</ele>
        <time>2019-08-05T17:54:58.538Z</time>
      </trkpt>
      <trkpt lat="46.34745" lon="0.39595">
        <ele>122.445888</ele>
        <time>2019-08-05T17:55:25.061Z</time>
      </trkpt>
      <trkpt lat="46.34716" lon="0.39626">
        <ele>122.588964</ele>
        <time>2019-08-05T17:55:37.191Z</time>
      </trkpt>
      <trkpt lat="46.34697" lon="0.39648">
        <ele>122.684894</ele>
        <time>2019-08-05T17:55:45.252Z</time>
      </trkpt>
      <trkpt lat="46.34689" lon="0.39649">
        <ele>122.715451</ele>
        <time>2019-08-05T17:55:46.910Z</time>
      </trkpt>
      <trkpt lat="46.34679" lon="0.39653">
        <ele>122.755747</ele>
        <time>2019-08-05T17:55:49.065Z</time>
      </trkpt>
      <trkpt lat="46.34186" lon="0.39554">
        <ele>124.434088</ele>
        <time>2019-08-05T17:58:37.031Z</time>
      </trkpt>
      <trkpt lat="46.33996" lon="0.39511">
        <ele>124.297476</ele>
        <time>2019-08-05T17:59:36.400Z</time>
      </trkpt>
      <trkpt lat="46.3392" lon="0.39544">
        <ele>124.305223</ele>
        <time>2019-08-05T18:00:01.381Z</time>
      </trkpt>
      <trkpt lat="46.33852" lon="0.39555">
        <ele>124.535226</ele>
        <time>2019-08-05T18:00:24.928Z</time>
      </trkpt>
      <trkpt lat="46.33753" lon="0.39552">
        <ele>125.33437</ele>
        <time>2019-08-05T18:01:00.695Z</time>
      </trkpt>
      <trkpt lat="46.33738" lon="0.3955">
        <ele>125.455447</ele>
        <time>2019-08-05T18:01:06.322Z</time>
      </trkpt>
      <trkpt lat="46.33745" lon="0.39539">
        <ele>125.535219</ele>
        <time>2019-08-05T18:01:08.593Z</time>
      </trkpt>
      <trkpt lat="46.33742" lon="0.39538">
        <ele>125.555036</ele>
        <time>2019-08-05T18:01:09.758Z</time>
      </trkpt>
      <trkpt lat="46.33593" lon="0.39425">
        <ele>127.048637</ele>
        <time>2019-08-05T18:02:11.530Z</time>
      </trkpt>
      <trkpt lat="46.3354" lon="0.39414">
        <ele>127.463681</ele>
        <time>2019-08-05T18:02:30.092Z</time>
      </trkpt>
      <trkpt lat="46.33443" lon="0.39431">
        <ele>127.962995</ele>
        <time>2019-08-05T18:03:04.193Z</time>
      </trkpt>
      <trkpt lat="46.3328" lon="0.39416">
        <ele>128.246728</ele>
        <time>2019-08-05T18:03:58.283Z</time>
      </trkpt>
      <trkpt lat="46.33035" lon="0.39336">
        <ele>127.141409</ele>
        <time>2019-08-05T18:05:14.989Z</time>
      </trkpt>
      <trkpt lat="46.3266" lon="0.39201">
        <ele>121.985277</ele>
        <time>2019-08-05T18:07:04.609Z</time>
      </trkpt>
      <trkpt lat="46.3262" lon="0.3919">
        <ele>121.731793</ele>
        <time>2019-08-05T18:07:16.219Z</time>
      </trkpt>
      <trkpt lat="46.32508" lon="0.39149">
        <ele>121.010356</ele>
        <time>2019-08-05T18:07:37.995Z</time>
      </trkpt>
      <trkpt lat="46.32467" lon="0.39495">
        <ele>121.63662</ele>
        <time>2019-08-05T18:08:34.678Z</time>
      </trkpt>
      <trkpt lat="46.32238" lon="0.39432">
        <ele>121.037202</ele>
        <time>2019-08-05T18:09:15.081Z</time>
      </trkpt>
      <trkpt lat="46.32206" lon="0.39419">
        <ele>120.976856</ele>
        <time>2019-08-05T18:09:21.831Z</time>
      </trkpt>
      <trkpt lat="46.32196" lon="0.39411">
        <ele>120.95684</ele>
        <time>2019-08-05T18:09:23.889Z</time>
      </trkpt>
      <trkpt lat="46.32189" lon="0.39403">
        <ele>120.940424</ele>
        <time>2019-08-05T18:09:26.630Z</time>
      </trkpt>
      <trkpt lat="46.32159" lon="0.39358">
        <ele>121.220334</ele>
        <time>2019-08-05T18:09:36.488Z</time>
      </trkpt>
      <trkpt lat="46.32105" lon="0.39256">
        <ele>122.357142</ele>
        <time>2019-08-05T18:09:59.191Z</time>
      </trkpt>
      <trkpt lat="46.32099" lon="0.39245">
        <ele>122.482748</ele>
        <time>2019-08-05T18:10:02.554Z</time>
      </trkpt>
      <trkpt lat="46.32081" lon="0.39217">
        <ele>122.819862</ele>
        <time>2019-08-05T18:10:09.814Z</time>
      </trkpt>
      <trkpt lat="46.32049" lon="0.39192">
        <ele>123.262871</ele>
        <time>2019-08-05T18:10:19.561Z</time>
      </trkpt>
      <trkpt lat="46.32003" lon="0.39163">
        <ele>123.690407</ele>
        <time>2019-08-05T18:10:32.116Z</time>
      </trkpt>
      <trkpt lat="46.31992" lon="0.39156">
        <ele>123.794976</ele>
        <time>2019-08-05T18:10:34.949Z</time>
      </trkpt>
      <trkpt lat="46.31927" lon="0.39116">
        <ele>124.403453</ele>
        <time>2019-08-05T18:10:50.362Z</time>
      </trkpt>
      <trkpt lat="46.31925" lon="0.39123">
        <ele>124.449875</ele>
        <time>2019-08-05T18:10:51.376Z</time>
      </trkpt>
      <trkpt lat="46.31912" lon="0.39132">
        <ele>124.570851</ele>
        <time>2019-08-05T18:10:54.595Z</time>
      </trkpt>
      <trkpt lat="46.31825" lon="0.39151">
        <ele>125.226503</ele>
        <time>2019-08-05T18:11:15.574Z</time>
      </trkpt>
      <trkpt lat="46.31804" lon="0.39147">
        <ele>125.370369</ele>
        <time>2019-08-05T18:11:20.002Z</time>
      </trkpt>
      <trkpt lat="46.31762" lon="0.39178">
        <ele>125.704268</ele>
        <time>2019-08-05T18:11:36.799Z</time>
      </trkpt>
      <trkpt lat="46.31521" lon="0.39308">
        <ele>127.451236</ele>
        <time>2019-08-05T18:13:10.112Z</time>
      </trkpt>
      <trkpt lat="46.31417" lon="0.39421">
        <ele>127.218019</ele>
        <time>2019-08-05T18:13:50.358Z</time>
      </trkpt>
      <trkpt lat="46.31336" lon="0.39547">
        <ele>126.308217</ele>
        <time>2019-08-05T18:14:24.857Z</time>
      </trkpt>
      <trkpt lat="46.31312" lon="0.39573">
        <ele>126.043002</ele>
        <time>2019-08-05T18:14:33.705Z</time>
      </trkpt>
      <trkpt lat="46.31243" lon="0.39624">
        <ele>125.639924</ele>
        <time>2019-08-05T18:14:56.754Z</time>
      </trkpt>
      <trkpt lat="46.31179" lon="0.39653">
        <ele>125.716417</ele>
        <time>2019-08-05T18:15:18.027Z</time>
      </trkpt>
      <trkpt lat="46.31138" lon="0.397">
        <ele>125.776152</ele>
        <time>2019-08-05T18:15:35.927Z</time>
      </trkpt>
      <trkpt lat="46.31028" lon="0.39804">
        <ele>126.546346</ele>
        <time>2019-08-05T18:16:22.815Z</time>
      </trkpt>
      <trkpt lat="46.30917" lon="0.39894">
        <ele>127.245448</ele>
        <time>2019-08-05T18:17:07.864Z</time>
      </trkpt>
      <trkpt lat="46.30853" lon="0.39974">
        <ele>127.424377</ele>
        <time>2019-08-05T18:17:35.882Z</time>
      </trkpt>
      <trkpt lat="46.30678" lon="0.40116">
        <ele>126.958949</ele>
        <time>2019-08-05T18:18:37.952Z</time>
      </trkpt>
      <trkpt lat="46.30638" lon="0.4014">
        <ele>126.785243</ele>
        <time>2019-08-05T18:18:50.931Z</time>
      </trkpt>
      <trkpt lat="46.30574" lon="0.40163">
        <ele>126.494079</ele>
        <time>2019-08-05T18:19:10.489Z</time>
      </trkpt>
      <trkpt lat="46.3054" lon="0.40169">
        <ele>126.341296</ele>
        <time>2019-08-05T18:19:20.884Z</time>
      </trkpt>
      <trkpt lat="46.30451" lon="0.40154">
        <ele>126.221973</ele>
        <time>2019-08-05T18:19:48.638Z</time>
      </trkpt>
      <trkpt lat="46.30344" lon="0.40141">
        <ele>126.956757</ele>
        <time>2019-08-05T18:20:25.922Z</time>
      </trkpt>
      <trkpt lat="46.3014" lon="0.40078">
        <ele>129.712863</ele>
        <time>2019-08-05T18:21:48.022Z</time>
      </trkpt>
      <trkpt lat="46.29973" lon="0.4002">
        <ele>132.288454</ele>
        <time>2019-08-05T18:22:56.231Z</time>
      </trkpt>
      <trkpt lat="46.29919" lon="0.40207">
        <ele>134.154111</ele>
        <time>2019-08-05T18:23:49.478Z</time>
      </trkpt>
      <trkpt lat="46.2967" lon="0.4059">
        <ele>139.220086</ele>
        <time>2019-08-05T18:26:10.104Z</time>
      </trkpt>
      <trkpt lat="46.29434" lon="0.40766">
        <ele>143.401005</ele>
        <time>2019-08-05T18:27:55.935Z</time>
      </trkpt>
      <trkpt lat="46.29333" lon="0.40808">
        <ele>144.815107</ele>
        <time>2019-08-05T18:28:36.806Z</time>
      </trkpt>
      <trkpt lat="46.29258" lon="0.40861">
        <ele>145.777348</ele>
        <time>2019-08-05T18:29:08.099Z</time>
      </trkpt>
      <trkpt lat="46.29057" lon="0.40957">
        <ele>147.111322</ele>
        <time>2019-08-05T18:30:23.306Z</time>
      </trkpt>
      <trkpt lat="46.2902" lon="0.40935">
        <ele>147.173022</ele>
        <time>2019-08-05T18:30:31.975Z</time>
      </trkpt>
      <trkpt lat="46.28689" lon="0.40772">
        <ele>145.583431</ele>
        <time>2019-08-05T18:31:38.767Z</time>
      </trkpt>
      <trkpt lat="46.28657" lon="0.40744">
        <ele>145.181682</ele>
        <time>2019-08-05T18:31:45.245Z</time>
      </trkpt>
      <trkpt lat="46.28641" lon="0.40717">
        <ele>144.913623</ele>
        <time>2019-08-05T18:31:49.483Z</time>
      </trkpt>
      <trkpt lat="46.28653" lon="0.40665">
        <ele>144.378432</ele>
        <time>2019-08-05T18:31:55.787Z</time>
      </trkpt>
      <trkpt lat="46.28631" lon="0.40601">
        <ele>143.369513</ele>
        <time>2019-08-05T18:32:03.770Z</time>
      </trkpt>
      <trkpt lat="46.28598" lon="0.40434">
        <ele>140.918585</ele>
        <time>2019-08-05T18:32:23.275Z</time>
      </trkpt>
      <trkpt lat="46.28564" lon="0.4037">
        <ele>140.166536</ele>
        <time>2019-08-05T18:32:32.614Z</time>
      </trkpt>
      <trkpt lat="46.28437" lon="0.40208">
        <ele>138.266325</ele>
        <time>2019-08-05T18:33:02.788Z</time>
      </trkpt>
      <trkpt lat="46.28383" lon="0.40161">
        <ele>137.935451</ele>
        <time>2019-08-05T18:33:14.309Z</time>
      </trkpt>
      <trkpt lat="46.28357" lon="0.40149">
        <ele>137.790947</ele>
        <time>2019-08-05T18:33:19.549Z</time>
      </trkpt>
      <trkpt lat="46.28304" lon="0.40137">
        <ele>137.695608</ele>
        <time>2019-08-05T18:33:30.524Z</time>
      </trkpt>
      <trkpt lat="46.28287" lon="0.40118">
        <ele>137.938704</ele>
        <time>2019-08-05T18:33:35.127Z</time>
      </trkpt>
      <trkpt lat="46.28274" lon="0.40245">
        <ele>138.932002</ele>
        <time>2019-08-05T18:34:07.364Z</time>
      </trkpt>
      <trkpt lat="46.28282" lon="0.40473">
        <ele>141.841325</ele>
        <time>2019-08-05T18:35:14.640Z</time>
      </trkpt>
      <trkpt lat="46.28272" lon="0.40559">
        <ele>143.18896</ele>
        <time>2019-08-05T18:35:41.350Z</time>
      </trkpt>
      <trkpt lat="46.28252" lon="0.40679">
        <ele>144.874851</ele>
        <time>2019-08-05T18:36:18.911Z</time>
      </trkpt>
      <trkpt lat="46.28236" lon="0.40735">
        <ele>145.658599</ele>
        <time>2019-08-05T18:36:36.562Z</time>
      </trkpt>
      <trkpt lat="46.28227" lon="0.40895">
        <ele>147.223802</ele>
        <time>2019-08-05T18:37:19.530Z</time>
      </trkpt>
      <trkpt lat="46.28196" lon="0.41018">
        <ele>147.722294</ele>
        <time>2019-08-05T18:37:50.520Z</time>
      </trkpt>
      <trkpt lat="46.28166" lon="0.41092">
        <ele>147.98141</ele>
        <time>2019-08-05T18:38:09.317Z</time>
      </trkpt>
      <trkpt lat="46.28149" lon="0.41195">
        <ele>147.806104</ele>
        <time>2019-08-05T18:38:32.008Z</time>
      </trkpt>
      <trkpt lat="46.28143" lon="0.4121">
        <ele>147.778068</ele>
        <time>2019-08-05T18:38:35.529Z</time>
      </trkpt>
      <trkpt lat="46.28138" lon="0.41216">
        <ele>147.760795</ele>
        <time>2019-08-05T18:38:37.754Z</time>
      </trkpt>
      <trkpt lat="46.28121" lon="0.41224">
        <ele>147.718658</ele>
        <time>2019-08-05T18:38:43.305Z</time>
      </trkpt>
      <trkpt lat="46.28117" lon="0.41233">
        <ele>147.701562</ele>
        <time>2019-08-05T18:38:45.455Z</time>
      </trkpt>
      <trkpt lat="46.28094" lon="0.41414">
        <ele>147.614581</ele>
        <time>2019-08-05T18:39:25.190Z</time>
      </trkpt>
      <trkpt lat="46.28083" lon="0.41534">
        <ele>147.665268</ele>
        <time>2019-08-05T18:39:52.785Z</time>
      </trkpt>
      <trkpt lat="46.28069" lon="0.41629">
        <ele>147.818157</ele>
        <time>2019-08-05T18:40:15.168Z</time>
      </trkpt>
      <trkpt lat="46.28053" lon="0.4189">
        <ele>148.383933</ele>
        <time>2019-08-05T18:41:15.958Z</time>
      </trkpt>
      <trkpt lat="46.28006" lon="0.42052">
        <ele>148.743621</ele>
        <time>2019-08-05T18:41:56.585Z</time>
      </trkpt>
      <trkpt lat="46.27992" lon="0.42156">
        <ele>148.822373</ele>
        <time>2019-08-05T18:42:20.410Z</time>
      </trkpt>
      <trkpt lat="46.27988" lon="0.42194">
        <ele>148.839467</ele>
        <time>2019-08-05T18:42:28.998Z</time>
      </trkpt>
      <trkpt lat="46.27965" lon="0.42202">
        <ele>148.854911</ele>
        <time>2019-08-05T18:42:33.566Z</time>
      </trkpt>
      <trkpt lat="46.2791" lon="0.42236">
        <ele>148.893569</ele>
        <time>2019-08-05T18:42:45.032Z</time>
      </trkpt>
      <trkpt lat="46.27783" lon="0.42317">
        <ele>148.913993</ele>
        <time>2019-08-05T18:43:11.670Z</time>
      </trkpt>
      <trkpt lat="46.27754" lon="0.42293">
        <ele>148.917599</ele>
        <time>2019-08-05T18:43:22.309Z</time>
      </trkpt>
      <trkpt lat="46.27748" lon="0.42274">
        <ele>148.919172</ele>
        <time>2019-08-05T18:43:26.953Z</time>
      </trkpt>
      <trkpt lat="46.27759" lon="0.42262">
        <ele>148.9133</ele>
        <time>2019-08-05T18:43:31.308Z</time>
      </trkpt>
      <trkpt lat="46.27763" lon="0.4225">
        <ele>148.908134</ele>
        <time>2019-08-05T18:43:34.114Z</time>
      </trkpt>
      <trkpt lat="46.27718" lon="0.4217">
        <ele>148.866399</ele>
        <time>2019-08-05T18:43:56.783Z</time>
      </trkpt>
      <trkpt lat="46.27673" lon="0.42127">
        <ele>148.834633</ele>
        <time>2019-08-05T18:44:13.872Z</time>
      </trkpt>
      <trkpt lat="46.27613" lon="0.42044">
        <ele>148.622046</ele>
        <time>2019-08-05T18:44:39.701Z</time>
      </trkpt>
      <trkpt lat="46.27562" lon="0.41995">
        <ele>148.37382</ele>
        <time>2019-08-05T18:44:58.738Z</time>
      </trkpt>
      <trkpt lat="46.27445" lon="0.41793">
        <ele>147.153924</ele>
        <time>2019-08-05T18:45:53.219Z</time>
      </trkpt>
      <trkpt lat="46.27443" lon="0.41803">
        <ele>147.091512</ele>
        <time>2019-08-05T18:45:54.462Z</time>
      </trkpt>
      <trkpt lat="46.27437" lon="0.4181">
        <ele>147.026548</ele>
        <time>2019-08-05T18:45:55.883Z</time>
      </trkpt>
      <trkpt lat="46.27223" lon="0.41901">
        <ele>144.978783</ele>
        <time>2019-08-05T18:46:35.833Z</time>
      </trkpt>
      <trkpt lat="46.27169" lon="0.41894">
        <ele>144.636395</ele>
        <time>2019-08-05T18:46:45.818Z</time>
      </trkpt>
      <trkpt lat="46.2705" lon="0.41891">
        <ele>143.97063</ele>
        <time>2019-08-05T18:47:08.342Z</time>
      </trkpt>
      <trkpt lat="46.27047" lon="0.41891">
        <ele>143.950526</ele>
        <time>2019-08-05T18:47:09.004Z</time>
      </trkpt>
      <trkpt lat="46.26985" lon="0.41905">
        <ele>143.679831</ele>
        <time>2019-08-05T18:47:20.925Z</time>
      </trkpt>
      <trkpt lat="46.26434" lon="0.42093">
        <ele>141.459575</ele>
        <time>2019-08-05T18:49:09.434Z</time>
      </trkpt>
      <trkpt lat="46.26366" lon="0.42154">
        <ele>141.193735</ele>
        <time>2019-08-05T18:49:26.083Z</time>
      </trkpt>
      <trkpt lat="46.26265" lon="0.42209">
        <ele>139.251215</ele>
        <time>2019-08-05T18:49:45.354Z</time>
      </trkpt>
      <trkpt lat="46.26248" lon="0.42209">
        <ele>138.873282</ele>
        <time>2019-08-05T18:49:48.139Z</time>
      </trkpt>
      <trkpt lat="46.26121" lon="0.42115">
        <ele>135.000154</ele>
        <time>2019-08-05T18:50:09.488Z</time>
      </trkpt>
      <trkpt lat="46.26115" lon="0.42129">
        <ele>134.64079</ele>
        <time>2019-08-05T18:50:10.948Z</time>
      </trkpt>
      <trkpt lat="46.26043" lon="0.42192">
        <ele>131.846639</ele>
        <time>2019-08-05T18:50:23.732Z</time>
      </trkpt>
      <trkpt lat="46.26031" lon="0.42238">
        <ele>131.173671</ele>
        <time>2019-08-05T18:50:29.316Z</time>
      </trkpt>
      <trkpt lat="46.26034" lon="0.42273">
        <ele>131.265203</ele>
        <time>2019-08-05T18:50:33.467Z</time>
      </trkpt>
      <trkpt lat="46.26034" lon="0.4228">
        <ele>131.283227</ele>
        <time>2019-08-05T18:50:34.555Z</time>
      </trkpt>
      <trkpt lat="46.26032" lon="0.42291">
        <ele>131.311361</ele>
        <time>2019-08-05T18:50:36.673Z</time>
      </trkpt>
      <trkpt lat="46.26018" lon="0.42321">
        <ele>131.402405</ele>
        <time>2019-08-05T18:50:41.887Z</time>
      </trkpt>
      <trkpt lat="46.26013" lon="0.42332">
        <ele>131.436244</ele>
        <time>2019-08-05T18:50:44.530Z</time>
      </trkpt>
      <trkpt lat="46.26006" lon="0.42345">
        <ele>131.47782</ele>
        <time>2019-08-05T18:50:47.575Z</time>
      </trkpt>
      <trkpt lat="46.25995" lon="0.4236">
        <ele>131.53367</ele>
        <time>2019-08-05T18:50:51.120Z</time>
      </trkpt>
      <trkpt lat="46.2599" lon="0.42362">
        <ele>131.552745</ele>
        <time>2019-08-05T18:50:52.655Z</time>
      </trkpt>
      <trkpt lat="46.25987" lon="0.42363">
        <ele>131.563102</ele>
        <time>2019-08-05T18:50:53.515Z</time>
      </trkpt>
      <trkpt lat="46.25985" lon="0.42373">
        <ele>131.589386</ele>
        <time>2019-08-05T18:50:56.073Z</time>
      </trkpt>
      <trkpt lat="46.25977" lon="0.42393">
        <ele>131.647712</ele>
        <time>2019-08-05T18:50:59.899Z</time>
      </trkpt>
      <trkpt lat="46.25883" lon="0.42625">
        <ele>133.01982</ele>
        <time>2019-08-05T18:51:51.343Z</time>
      </trkpt>
      <trkpt lat="46.25873" lon="0.42648">
        <ele>133.176312</ele>
        <time>2019-08-05T18:51:54.298Z</time>
      </trkpt>
      <trkpt lat="46.25869" lon="0.42659">
        <ele>133.248599</ele>
        <time>2019-08-05T18:51:55.679Z</time>
      </trkpt>
      <trkpt lat="46.25864" lon="0.4268">
        <ele>132.994842</ele>
        <time>2019-08-05T18:51:58.238Z</time>
      </trkpt>
      <trkpt lat="46.25863" lon="0.42697">
        <ele>132.673606</ele>
        <time>2019-08-05T18:51:59.944Z</time>
      </trkpt>
      <trkpt lat="46.25858" lon="0.42696">
        <ele>132.538903</ele>
        <time>2019-08-05T18:52:00.711Z</time>
      </trkpt>
      <trkpt lat="46.25854" lon="0.4269">
        <ele>132.3846</ele>
        <time>2019-08-05T18:52:01.649Z</time>
      </trkpt>
      <trkpt lat="46.25845" lon="0.42679">
        <ele>132.038573</ele>
        <time>2019-08-05T18:52:03.781Z</time>
      </trkpt>
      <trkpt lat="46.25821" lon="0.427">
        <ele>131.281651</ele>
        <time>2019-08-05T18:52:09.243Z</time>
      </trkpt>
      <trkpt lat="46.25803" lon="0.42757">
        <ele>130.075482</ele>
        <time>2019-08-05T18:52:17.941Z</time>
      </trkpt>
      <trkpt lat="46.25787" lon="0.42756">
        <ele>129.631738</ele>
        <time>2019-08-05T18:52:20.097Z</time>
      </trkpt>
      <trkpt lat="46.25706" lon="0.42752">
        <ele>127.910663</ele>
        <time>2019-08-05T18:52:31.443Z</time>
      </trkpt>
      <trkpt lat="46.25662" lon="0.42767">
        <ele>127.378719</ele>
        <time>2019-08-05T18:52:38.291Z</time>
      </trkpt>
      <trkpt lat="46.25631" lon="0.42787">
        <ele>126.973162</ele>
        <time>2019-08-05T18:52:43.898Z</time>
      </trkpt>
      <trkpt lat="46.25605" lon="0.42805">
        <ele>126.629391</ele>
        <time>2019-08-05T18:52:49.544Z</time>
      </trkpt>
      <trkpt lat="46.25581" lon="0.42821">
        <ele>126.30887</ele>
        <time>2019-08-05T18:52:55.581Z</time>
      </trkpt>
      <trkpt lat="46.25536" lon="0.42854">
        <ele>126.980576</ele>
        <time>2019-08-05T18:53:08.267Z</time>
      </trkpt>
      <trkpt lat="46.25484" lon="0.42915">
        <ele>128.417463</ele>
        <time>2019-08-05T18:53:28.440Z</time>
      </trkpt>
      <trkpt lat="46.25383" lon="0.4299">
        <ele>131.020321</ele>
        <time>2019-08-05T18:54:07.299Z</time>
      </trkpt>
      <trkpt lat="46.25318" lon="0.43075">
        <ele>133.255201</ele>
        <time>2019-08-05T18:54:35.821Z</time>
      </trkpt>
      <trkpt lat="46.25302" lon="0.43093">
        <ele>133.779117</ele>
        <time>2019-08-05T18:54:42.225Z</time>
      </trkpt>
      <trkpt lat="46.25303" lon="0.43096">
        <ele>133.840232</ele>
        <time>2019-08-05T18:54:43.481Z</time>
      </trkpt>
      <trkpt lat="46.25299" lon="0.4312">
        <ele>134.279476</ele>
        <time>2019-08-05T18:54:50.502Z</time>
      </trkpt>
      <trkpt lat="46.25277" lon="0.43174">
        <ele>134.996717</ele>
        <time>2019-08-05T18:55:08.736Z</time>
      </trkpt>
      <trkpt lat="46.25148" lon="0.43385">
        <ele>136.95994</ele>
        <time>2019-08-05T18:56:20.106Z</time>
      </trkpt>
      <trkpt lat="46.2513" lon="0.43446">
        <ele>137.112659</ele>
        <time>2019-08-05T18:56:34.893Z</time>
      </trkpt>
      <trkpt lat="46.25069" lon="0.43603">
        <ele>137.575421</ele>
        <time>2019-08-05T18:57:14.928Z</time>
      </trkpt>
      <trkpt lat="46.24879" lon="0.43953">
        <ele>139.298271</ele>
        <time>2019-08-05T18:59:01.960Z</time>
      </trkpt>
      <trkpt lat="46.24819" lon="0.44002">
        <ele>139.602058</ele>
        <time>2019-08-05T18:59:27.096Z</time>
      </trkpt>
      <trkpt lat="46.24748" lon="0.44026">
        <ele>139.876078</ele>
        <time>2019-08-05T18:59:51.358Z</time>
      </trkpt>
      <trkpt lat="46.24718" lon="0.4404">
        <ele>139.992901</ele>
        <time>2019-08-05T19:00:01.569Z</time>
      </trkpt>
      <trkpt lat="46.24635" lon="0.44109">
        <ele>139.832496</ele>
        <time>2019-08-05T19:00:31.896Z</time>
      </trkpt>
      <trkpt lat="46.24533" lon="0.44188">
        <ele>139.41924</ele>
        <time>2019-08-05T19:01:06.862Z</time>
      </trkpt>
      <trkpt lat="46.24437" lon="0.44272">
        <ele>138.913343</ele>
        <time>2019-08-05T19:01:41.128Z</time>
      </trkpt>
      <trkpt lat="46.24413" lon="0.4431">
        <ele>138.753859</ele>
        <time>2019-08-05T19:01:51.857Z</time>
      </trkpt>
      <trkpt lat="46.2436" lon="0.44352">
        <ele>138.691939</ele>
        <time>2019-08-05T19:02:10.469Z</time>
      </trkpt>
      <trkpt lat="46.2435" lon="0.44351">
        <ele>138.705693</ele>
        <time>2019-08-05T19:02:12.321Z</time>
      </trkpt>
      <trkpt lat="46.24325" lon="0.44367">
        <ele>138.743029</ele>
        <time>2019-08-05T19:02:17.737Z</time>
      </trkpt>
      <trkpt lat="46.24304" lon="0.4439">
        <ele>138.780228</ele>
        <time>2019-08-05T19:02:23.002Z</time>
      </trkpt>
      <trkpt lat="46.2429" lon="0.44391">
        <ele>138.79885</ele>
        <time>2019-08-05T19:02:26.078Z</time>
      </trkpt>
      <trkpt lat="46.24267" lon="0.44379">
        <ele>138.833211</ele>
        <time>2019-08-05T19:02:31.215Z</time>
      </trkpt>
      <trkpt lat="46.24198" lon="0.44325">
        <ele>139.497816</ele>
        <time>2019-08-05T19:02:50.000Z</time>
      </trkpt>
      <trkpt lat="46.24062" lon="0.44269">
        <ele>141.849428</ele>
        <time>2019-08-05T19:03:31.800Z</time>
      </trkpt>
      <trkpt lat="46.24002" lon="0.44238">
        <ele>143.446816</ele>
        <time>2019-08-05T19:03:52.522Z</time>
      </trkpt>
      <trkpt lat="46.23998" lon="0.44236">
        <ele>143.541728</ele>
        <time>2019-08-05T19:03:54.246Z</time>
      </trkpt>
      <trkpt lat="46.23985" lon="0.44269">
        <ele>144.212463</ele>
        <time>2019-08-05T19:04:02.652Z</time>
      </trkpt>
      <trkpt lat="46.23953" lon="0.44332">
        <ele>145.581797</ele>
        <time>2019-08-05T19:04:20.383Z</time>
      </trkpt>
      <trkpt lat="46.23909" lon="0.44406">
        <ele>147.125972</ele>
        <time>2019-08-05T19:04:42.152Z</time>
      </trkpt>
      <trkpt lat="46.23864" lon="0.44481">
        <ele>148.542354</ele>
        <time>2019-08-05T19:05:02.777Z</time>
      </trkpt>
      <trkpt lat="46.23842" lon="0.44514">
        <ele>149.19504</ele>
        <time>2019-08-05T19:05:11.923Z</time>
      </trkpt>
      <trkpt lat="46.23814" lon="0.44555">
        <ele>150.011256</ele>
        <time>2019-08-05T19:05:23.149Z</time>
      </trkpt>
      <trkpt lat="46.23737" lon="0.44661">
        <ele>151.658079</ele>
        <time>2019-08-05T19:05:51.107Z</time>
      </trkpt>
      <trkpt lat="46.23709" lon="0.44701">
        <ele>152.25759</ele>
        <time>2019-08-05T19:06:01.711Z</time>
      </trkpt>
      <trkpt lat="46.23678" lon="0.44742">
        <ele>152.896282</ele>
        <time>2019-08-05T19:06:12.898Z</time>
      </trkpt>
      <trkpt lat="46.23393" lon="0.45063">
        <ele>157.814309</ele>
        <time>2019-08-05T19:07:48.027Z</time>
      </trkpt>
      <trkpt lat="46.23334" lon="0.45111">
        <ele>157.873889</ele>
        <time>2019-08-05T19:08:02.037Z</time>
      </trkpt>
      <trkpt lat="46.23254" lon="0.45172">
        <ele>157.952872</ele>
        <time>2019-08-05T19:08:18.766Z</time>
      </trkpt>
      <trkpt lat="46.23239" lon="0.45187">
        <ele>157.969004</ele>
        <time>2019-08-05T19:08:22.042Z</time>
      </trkpt>
      <trkpt lat="46.23194" lon="0.45239">
        <ele>157.832667</ele>
        <time>2019-08-05T19:08:32.299Z</time>
      </trkpt>
      <trkpt lat="46.23016" lon="0.45448">
        <ele>157.515124</ele>
        <time>2019-08-05T19:09:15.563Z</time>
      </trkpt>
      <trkpt lat="46.22886" lon="0.45562">
        <ele>157.553306</ele>
        <time>2019-08-05T19:09:45.338Z</time>
      </trkpt>
      <trkpt lat="46.22794" lon="0.45684">
        <ele>157.641999</ele>
        <time>2019-08-05T19:10:09.747Z</time>
      </trkpt>
      <trkpt lat="46.22766" lon="0.45733">
        <ele>157.674619</ele>
        <time>2019-08-05T19:10:18.432Z</time>
      </trkpt>
      <trkpt lat="46.22718" lon="0.45893">
        <ele>157.791682</ele>
        <time>2019-08-05T19:10:41.808Z</time>
      </trkpt>
      <trkpt lat="46.22682" lon="0.45973">
        <ele>158.053759</ele>
        <time>2019-08-05T19:10:55.290Z</time>
      </trkpt>
      <trkpt lat="46.22668" lon="0.45996">
        <ele>158.139443</ele>
        <time>2019-08-05T19:11:00.137Z</time>
      </trkpt>
      <trkpt lat="46.22631" lon="0.46048">
        <ele>158.346352</ele>
        <time>2019-08-05T19:11:11.307Z</time>
      </trkpt>
      <trkpt lat="46.22563" lon="0.46132">
        <ele>158.675043</ele>
        <time>2019-08-05T19:11:30.993Z</time>
      </trkpt>
      <trkpt lat="46.22511" lon="0.46211">
        <ele>158.941197</ele>
        <time>2019-08-05T19:11:47.135Z</time>
      </trkpt>
      <trkpt lat="46.22451" lon="0.46277">
        <ele>159.026903</ele>
        <time>2019-08-05T19:12:02.089Z</time>
      </trkpt>
      <trkpt lat="46.22419" lon="0.46326">
        <ele>158.882602</ele>
        <time>2019-08-05T19:12:10.688Z</time>
      </trkpt>
      <trkpt lat="46.22379" lon="0.46412">
        <ele>158.661562</ele>
        <time>2019-08-05T19:12:23.622Z</time>
      </trkpt>
      <trkpt lat="46.22337" lon="0.46479">
        <ele>158.470946</ele>
        <time>2019-08-05T19:12:34.763Z</time>
      </trkpt>
      <trkpt lat="46.22311" lon="0.46553">
        <ele>158.294933</ele>
        <time>2019-08-05T19:12:45.127Z</time>
      </trkpt>
      <trkpt lat="46.22295" lon="0.46582">
        <ele>158.214688</ele>
        <time>2019-08-05T19:12:49.899Z</time>
      </trkpt>
      <trkpt lat="46.22279" lon="0.466">
        <ele>158.154787</ele>
        <time>2019-08-05T19:12:53.490Z</time>
      </trkpt>
      <trkpt lat="46.22277" lon="0.46597">
        <ele>158.146751</ele>
        <time>2019-08-05T19:12:53.985Z</time>
      </trkpt>
      <trkpt lat="46.2227" lon="0.46596">
        <ele>158.123294</ele>
        <time>2019-08-05T19:12:55.426Z</time>
      </trkpt>
      <trkpt lat="46.22267" lon="0.46598">
        <ele>158.11505</ele>
        <time>2019-08-05T19:12:55.919Z</time>
      </trkpt>
      <trkpt lat="46.22266" lon="0.46601">
        <ele>158.107692</ele>
        <time>2019-08-05T19:12:56.350Z</time>
      </trkpt>
      <trkpt lat="46.22265" lon="0.4661">
        <ele>158.086601</ele>
        <time>2019-08-05T19:12:57.668Z</time>
      </trkpt>
      <trkpt lat="46.22267" lon="0.46613">
        <ele>158.079573</ele>
        <time>2019-08-05T19:12:58.103Z</time>
      </trkpt>
      <trkpt lat="46.22261" lon="0.46621">
        <ele>158.05672</ele>
        <time>2019-08-05T19:13:00.371Z</time>
      </trkpt>
      <trkpt lat="46.22113" lon="0.46802">
        <ele>157.910361</ele>
        <time>2019-08-05T19:14:01.907Z</time>
      </trkpt>
      <trkpt lat="46.22081" lon="0.46827">
        <ele>157.866148</ele>
        <time>2019-08-05T19:14:13.529Z</time>
      </trkpt>
      <trkpt lat="46.22059" lon="0.46855">
        <ele>157.830067</ele>
        <time>2019-08-05T19:14:22.642Z</time>
      </trkpt>
      <trkpt lat="46.2199" lon="0.46982">
        <ele>157.689126</ele>
        <time>2019-08-05T19:14:57.994Z</time>
      </trkpt>
      <trkpt lat="46.21957" lon="0.47106">
        <ele>156.647656</ele>
        <time>2019-08-05T19:15:25.913Z</time>
      </trkpt>
      <trkpt lat="46.21948" lon="0.47187">
        <ele>155.976662</ele>
        <time>2019-08-05T19:15:42.255Z</time>
      </trkpt>
      <trkpt lat="46.21964" lon="0.47239">
        <ele>155.429055</ele>
        <time>2019-08-05T19:15:53.113Z</time>
      </trkpt>
      <trkpt lat="46.21918" lon="0.47344">
        <ele>152.917531</ele>
        <time>2019-08-05T19:16:15.707Z</time>
      </trkpt>
      <trkpt lat="46.21917" lon="0.47359">
        <ele>152.619755</ele>
        <time>2019-08-05T19:16:18.217Z</time>
      </trkpt>
      <trkpt lat="46.21904" lon="0.47475">
        <ele>150.286167</ele>
        <time>2019-08-05T19:16:39.136Z</time>
      </trkpt>
      <trkpt lat="46.21891" lon="0.47511">
        <ele>149.811565</ele>
        <time>2019-08-05T19:16:46.430Z</time>
      </trkpt>
      <trkpt lat="46.21777" lon="0.47624">
        <ele>147.499712</ele>
        <time>2019-08-05T19:17:25.072Z</time>
      </trkpt>
      <trkpt lat="46.21742" lon="0.47698">
        <ele>147.716175</ele>
        <time>2019-08-05T19:17:47.050Z</time>
      </trkpt>
      <trkpt lat="46.21669" lon="0.47783">
        <ele>148.452574</ele>
        <time>2019-08-05T19:18:23.305Z</time>
      </trkpt>
      <trkpt lat="46.2165" lon="0.47819">
        <ele>148.701463</ele>
        <time>2019-08-05T19:18:35.602Z</time>
      </trkpt>
      <trkpt lat="46.21632" lon="0.47904">
        <ele>148.114107</ele>
        <time>2019-08-05T19:18:56.336Z</time>
      </trkpt>
      <trkpt lat="46.21621" lon="0.47948">
        <ele>147.765912</ele>
        <time>2019-08-05T19:19:02.143Z</time>
      </trkpt>
      <trkpt lat="46.21595" lon="0.48015">
        <ele>147.191946</ele>
        <time>2019-08-05T19:19:10.992Z</time>
      </trkpt>
      <trkpt lat="46.21581" lon="0.48047">
        <ele>146.905516</ele>
        <time>2019-08-05T19:19:15.225Z</time>
      </trkpt>
      <trkpt lat="46.21573" lon="0.48056">
        <ele>146.796982</ele>
        <time>2019-08-05T19:19:16.784Z</time>
      </trkpt>
      <trkpt lat="46.21573" lon="0.48069">
        <ele>146.574193</ele>
        <time>2019-08-05T19:19:18.175Z</time>
      </trkpt>
      <trkpt lat="46.21572" lon="0.48085">
        <ele>146.311787</ele>
        <time>2019-08-05T19:19:19.734Z</time>
      </trkpt>
      <trkpt lat="46.21569" lon="0.48108">
        <ele>145.900517</ele>
        <time>2019-08-05T19:19:22.153Z</time>
      </trkpt>
      <trkpt lat="46.21567" lon="0.48119">
        <ele>145.709997</ele>
        <time>2019-08-05T19:19:23.296Z</time>
      </trkpt>
      <trkpt lat="46.21562" lon="0.48144">
        <ele>145.271223</ele>
        <time>2019-08-05T19:19:25.870Z</time>
      </trkpt>
      <trkpt lat="46.21553" lon="0.48184">
        <ele>144.55361</ele>
        <time>2019-08-05T19:19:30.163Z</time>
      </trkpt>
      <trkpt lat="46.21537" lon="0.48251">
        <ele>143.363483</ele>
        <time>2019-08-05T19:19:37.289Z</time>
      </trkpt>
      <trkpt lat="46.21503" lon="0.48398">
        <ele>141.226741</ele>
        <time>2019-08-05T19:19:54.958Z</time>
      </trkpt>
      <trkpt lat="46.2148" lon="0.4847">
        <ele>140.296116</ele>
        <time>2019-08-05T19:20:03.727Z</time>
      </trkpt>
      <trkpt lat="46.21532" lon="0.48512">
        <ele>139.278468</ele>
        <time>2019-08-05T19:20:13.075Z</time>
      </trkpt>
      <trkpt lat="46.21535" lon="0.48514">
        <ele>139.239733</ele>
        <time>2019-08-05T19:20:13.828Z</time>
      </trkpt>
      <trkpt lat="46.21538" lon="0.48517">
        <ele>139.184735</ele>
        <time>2019-08-05T19:20:14.410Z</time>
      </trkpt>
      <trkpt lat="46.21551" lon="0.48534">
        <ele>138.941023</ele>
        <time>2019-08-05T19:20:16.946Z</time>
      </trkpt>
      <trkpt lat="46.21563" lon="0.48554">
        <ele>138.689652</ele>
        <time>2019-08-05T19:20:19.742Z</time>
      </trkpt>
      <trkpt lat="46.21553" lon="0.48571">
        <ele>138.488704</ele>
        <time>2019-08-05T19:20:21.861Z</time>
      </trkpt>
      <trkpt lat="46.21533" lon="0.48618">
        <ele>137.953314</ele>
        <time>2019-08-05T19:20:27.961Z</time>
      </trkpt>
      <trkpt lat="46.21533" lon="0.48727">
        <ele>136.912003</ele>
        <time>2019-08-05T19:20:40.623Z</time>
      </trkpt>
      <trkpt lat="46.21532" lon="0.48729">
        <ele>136.892362</ele>
        <time>2019-08-05T19:20:40.797Z</time>
      </trkpt>
      <trkpt lat="46.21521" lon="0.48751">
        <ele>137.256586</ele>
        <time>2019-08-05T19:20:45.197Z</time>
      </trkpt>
      <trkpt lat="46.21506" lon="0.48782">
        <ele>138.0758</ele>
        <time>2019-08-05T19:20:51.190Z</time>
      </trkpt>
      <trkpt lat="46.21476" lon="0.48825">
        <ele>139.39935</ele>
        <time>2019-08-05T19:21:05.150Z</time>
      </trkpt>
      <trkpt lat="46.21451" lon="0.48844">
        <ele>140.265515</ele>
        <time>2019-08-05T19:21:15.388Z</time>
      </trkpt>
      <trkpt lat="46.21406" lon="0.48878">
        <ele>141.829058</ele>
        <time>2019-08-05T19:21:37.321Z</time>
      </trkpt>
      <trkpt lat="46.21374" lon="0.49089">
        <ele>149.421268</ele>
        <time>2019-08-05T19:22:50.984Z</time>
      </trkpt>
      <trkpt lat="46.21322" lon="0.49224">
        <ele>153.717388</ele>
        <time>2019-08-05T19:23:34.073Z</time>
      </trkpt>
      <trkpt lat="46.2129" lon="0.49397">
        <ele>157.326045</ele>
        <time>2019-08-05T19:24:12.771Z</time>
      </trkpt>
      <trkpt lat="46.21258" lon="0.4949">
        <ele>158.224279</ele>
        <time>2019-08-05T19:24:30.914Z</time>
      </trkpt>
      <trkpt lat="46.21186" lon="0.49621">
        <ele>159.591958</ele>
        <time>2019-08-05T19:24:59.700Z</time>
      </trkpt>
      <trkpt lat="46.21081" lon="0.49711">
        <ele>159.949318</ele>
        <time>2019-08-05T19:25:25.485Z</time>
      </trkpt>
      <trkpt lat="46.21048" lon="0.49752">
        <ele>160.077082</ele>
        <time>2019-08-05T19:25:33.568Z</time>
      </trkpt>
      <trkpt lat="46.21027" lon="0.49806">
        <ele>159.914086</ele>
        <time>2019-08-05T19:25:41.460Z</time>
      </trkpt>
      <trkpt lat="46.21001" lon="0.49901">
        <ele>159.582117</ele>
        <time>2019-08-05T19:25:54.079Z</time>
      </trkpt>
      <trkpt lat="46.20999" lon="0.49911">
        <ele>159.54876</ele>
        <time>2019-08-05T19:25:55.164Z</time>
      </trkpt>
      <trkpt lat="46.20987" lon="0.49934">
        <ele>159.456466</ele>
        <time>2019-08-05T19:26:01.315Z</time>
      </trkpt>
      <trkpt lat="46.20965" lon="0.49975">
        <ele>159.286966</ele>
        <time>2019-08-05T19:26:12.396Z</time>
      </trkpt>
      <trkpt lat="46.20892" lon="0.50039">
        <ele>158.961428</ele>
        <time>2019-08-05T19:26:38.500Z</time>
      </trkpt>
      <trkpt lat="46.20841" lon="0.50104">
        <ele>158.707126</ele>
        <time>2019-08-05T19:26:59.925Z</time>
      </trkpt>
      <trkpt lat="46.20733" lon="0.50247">
        <ele>157.943052</ele>
        <time>2019-08-05T19:27:44.300Z</time>
      </trkpt>
      <trkpt lat="46.2071" lon="0.5029">
        <ele>157.733296</ele>
        <time>2019-08-05T19:27:55.434Z</time>
      </trkpt>
      <trkpt lat="46.20688" lon="0.50391">
        <ele>157.335714</ele>
        <time>2019-08-05T19:28:17.675Z</time>
      </trkpt>
      <trkpt lat="46.20673" lon="0.50574">
        <ele>156.671128</ele>
        <time>2019-08-05T19:28:56.574Z</time>
      </trkpt>
      <trkpt lat="46.20637" lon="0.50736">
        <ele>155.867694</ele>
        <time>2019-08-05T19:29:32.317Z</time>
      </trkpt>
      <trkpt lat="46.20598" lon="0.50861">
        <ele>155.150599</ele>
        <time>2019-08-05T19:30:00.440Z</time>
      </trkpt>
      <trkpt lat="46.20602" lon="0.50872">
        <ele>155.068349</ele>
        <time>2019-08-05T19:30:02.900Z</time>
      </trkpt>
      <trkpt lat="46.20669" lon="0.50936">
        <ele>154.310934</ele>
        <time>2019-08-05T19:30:26.281Z</time>
      </trkpt>
      <trkpt lat="46.20807" lon="0.51019">
        <ele>152.903667</ele>
        <time>2019-08-05T19:31:10.524Z</time>
      </trkpt>
      <trkpt lat="46.20873" lon="0.51078">
        <ele>152.189477</ele>
        <time>2019-08-05T19:31:33.273Z</time>
      </trkpt>
      <trkpt lat="46.2091" lon="0.51134">
        <ele>151.497163</ele>
        <time>2019-08-05T19:31:49.120Z</time>
      </trkpt>
      <trkpt lat="46.20916" lon="0.5114">
        <ele>151.395914</ele>
        <time>2019-08-05T19:31:51.111Z</time>
      </trkpt>
      <trkpt lat="46.20943" lon="0.51163">
        <ele>150.920661</ele>
        <time>2019-08-05T19:31:56.485Z</time>
      </trkpt>
      <trkpt lat="46.20927" lon="0.51199">
        <ele>150.473754</ele>
        <time>2019-08-05T19:32:01.492Z</time>
      </trkpt>
      <trkpt lat="46.20888" lon="0.5127">
        <ele>149.539033</ele>
        <time>2019-08-05T19:32:12.070Z</time>
      </trkpt>
      <trkpt lat="46.20863" lon="0.51296">
        <ele>149.162724</ele>
        <time>2019-08-05T19:32:17.201Z</time>
      </trkpt>
      <trkpt lat="46.20848" lon="0.51304">
        <ele>149.01004</ele>
        <time>2019-08-05T19:32:19.797Z</time>
      </trkpt>
      <trkpt lat="46.20842" lon="0.51317">
        <ele>148.902434</ele>
        <time>2019-08-05T19:32:21.656Z</time>
      </trkpt>
      <trkpt lat="46.20827" lon="0.51339">
        <ele>148.698171</ele>
        <time>2019-08-05T19:32:25.199Z</time>
      </trkpt>
      <trkpt lat="46.20769" lon="0.51463">
        <ele>147.694679</ele>
        <time>2019-08-05T19:32:44.199Z</time>
      </trkpt>
      <trkpt lat="46.20713" lon="0.51489">
        <ele>147.855421</ele>
        <time>2019-08-05T19:32:56.963Z</time>
      </trkpt>
      <trkpt lat="46.20702" lon="0.515">
        <ele>147.940557</ele>
        <time>2019-08-05T19:33:00.382Z</time>
      </trkpt>
      <trkpt lat="46.20622" lon="0.5145">
        <ele>148.481339</ele>
        <time>2019-08-05T19:33:31.634Z</time>
      </trkpt>
      <trkpt lat="46.20551" lon="0.51405">
        <ele>149.043266</ele>
        <time>2019-08-05T19:33:59.893Z</time>
      </trkpt>
      <trkpt lat="46.20389" lon="0.51308">
        <ele>150.612685</ele>
        <time>2019-08-05T19:35:02.043Z</time>
      </trkpt>
      <trkpt lat="46.20388" lon="0.51313">
        <ele>150.653528</ele>
        <time>2019-08-05T19:35:03.527Z</time>
      </trkpt>
      <trkpt lat="46.20383" lon="0.51326">
        <ele>150.783812</ele>
        <time>2019-08-05T19:35:07.298Z</time>
      </trkpt>
      <trkpt lat="46.20376" lon="0.51332">
        <ele>150.884188</ele>
        <time>2019-08-05T19:35:10.174Z</time>
      </trkpt>
      <trkpt lat="46.20249" lon="0.51389">
        <ele>152.538994</ele>
        <time>2019-08-05T19:36:02.158Z</time>
      </trkpt>
      <trkpt lat="46.20216" lon="0.51387">
        <ele>153.01185</ele>
        <time>2019-08-05T19:36:15.367Z</time>
      </trkpt>
      <trkpt lat="46.20208" lon="0.51394">
        <ele>153.152337</ele>
        <time>2019-08-05T19:36:19.033Z</time>
      </trkpt>
      <trkpt lat="46.20194" lon="0.5141">
        <ele>153.40158</ele>
        <time>2019-08-05T19:36:26.057Z</time>
      </trkpt>
      <trkpt lat="46.2019" lon="0.51414">
        <ele>153.46735</ele>
        <time>2019-08-05T19:36:28.112Z</time>
      </trkpt>
      <trkpt lat="46.20017" lon="0.51639">
        <ele>156.618525</ele>
        <time>2019-08-05T19:37:57.216Z</time>
      </trkpt>
      <trkpt lat="46.19958" lon="0.51751">
        <ele>157.990851</ele>
        <time>2019-08-05T19:38:34.769Z</time>
      </trkpt>
      <trkpt lat="46.19907" lon="0.51865">
        <ele>159.374901</ele>
        <time>2019-08-05T19:39:11.780Z</time>
      </trkpt>
      <trkpt lat="46.19805" lon="0.52132">
        <ele>162.716632</ele>
        <time>2019-08-05T19:40:36.491Z</time>
      </trkpt>
      <trkpt lat="46.1977" lon="0.52242">
        <ele>163.677976</ele>
        <time>2019-08-05T19:41:08.413Z</time>
      </trkpt>
      <trkpt lat="46.19758" lon="0.52305">
        <ele>164.187154</ele>
        <time>2019-08-05T19:41:25.456Z</time>
      </trkpt>
      <trkpt lat="46.19739" lon="0.52494">
        <ele>165.214972</ele>
        <time>2019-08-05T19:42:12.385Z</time>
      </trkpt>
      <trkpt lat="46.19734" lon="0.52504">
        <ele>165.260498</ele>
        <time>2019-08-05T19:42:15.638Z</time>
      </trkpt>
      <trkpt lat="46.19679" lon="0.52536">
        <ele>165.578221</ele>
        <time>2019-08-05T19:42:35.641Z</time>
      </trkpt>
      <trkpt lat="46.19659" lon="0.52547">
        <ele>165.691357</ele>
        <time>2019-08-05T19:42:42.913Z</time>
      </trkpt>
      <trkpt lat="46.19589" lon="0.52593">
        <ele>165.557296</ele>
        <time>2019-08-05T19:43:07.664Z</time>
      </trkpt>
      <trkpt lat="46.1941" lon="0.52635">
        <ele>164.525316</ele>
        <time>2019-08-05T19:44:02.800Z</time>
      </trkpt>
      <trkpt lat="46.19383" lon="0.5263">
        <ele>164.256403</ele>
        <time>2019-08-05T19:44:10.557Z</time>
      </trkpt>
      <trkpt lat="46.19226" lon="0.52566">
        <ele>162.368215</ele>
        <time>2019-08-05T19:44:57.184Z</time>
      </trkpt>
      <trkpt lat="46.19081" lon="0.52438">
        <ele>159.948661</ele>
        <time>2019-08-05T19:45:45.662Z</time>
      </trkpt>
      <trkpt lat="46.19025" lon="0.52407">
        <ele>158.996049</ele>
        <time>2019-08-05T19:46:02.659Z</time>
      </trkpt>
      <trkpt lat="46.18931" lon="0.5242">
        <ele>157.289687</ele>
        <time>2019-08-05T19:46:28.811Z</time>
      </trkpt>
      <trkpt lat="46.18852" lon="0.52416">
        <ele>155.635469</ele>
        <time>2019-08-05T19:46:50.229Z</time>
      </trkpt>
      <trkpt lat="46.18813" lon="0.52397">
        <ele>154.778062</ele>
        <time>2019-08-05T19:47:01.296Z</time>
      </trkpt>
      <trkpt lat="46.18733" lon="0.52378">
        <ele>153.047076</ele>
        <time>2019-08-05T19:47:23.378Z</time>
      </trkpt>
      <trkpt lat="46.18674" lon="0.52404">
        <ele>151.742077</ele>
        <time>2019-08-05T19:47:40.061Z</time>
      </trkpt>
      <trkpt lat="46.18623" lon="0.52409">
        <ele>150.644569</ele>
        <time>2019-08-05T19:47:54.142Z</time>
      </trkpt>
      <trkpt lat="46.18542" lon="0.52388">
        <ele>149.101425</ele>
        <time>2019-08-05T19:48:16.635Z</time>
      </trkpt>
      <trkpt lat="46.18438" lon="0.52306">
        <ele>146.971155</ele>
        <time>2019-08-05T19:48:49.580Z</time>
      </trkpt>
      <trkpt lat="46.18312" lon="0.52222">
        <ele>145.263395</ele>
        <time>2019-08-05T19:49:29.093Z</time>
      </trkpt>
      <trkpt lat="46.18302" lon="0.52222">
        <ele>145.142524</ele>
        <time>2019-08-05T19:49:32.054Z</time>
      </trkpt>
      <trkpt lat="46.18287" lon="0.52225">
        <ele>144.957948</ele>
        <time>2019-08-05T19:49:36.496Z</time>
      </trkpt>
      <trkpt lat="46.18278" lon="0.52214">
        <ele>145.012534</ele>
        <time>2019-08-05T19:49:40.521Z</time>
      </trkpt>
      <trkpt lat="46.18227" lon="0.52174">
        <ele>145.282141</ele>
        <time>2019-08-05T19:49:58.850Z</time>
      </trkpt>
      <trkpt lat="46.18218" lon="0.52176">
        <ele>145.322527</ele>
        <time>2019-08-05T19:50:02.281Z</time>
      </trkpt>
      <trkpt lat="46.18186" lon="0.5217">
        <ele>145.474748</ele>
        <time>2019-08-05T19:50:13.504Z</time>
      </trkpt>
      <trkpt lat="46.18125" lon="0.52181">
        <ele>145.75727</ele>
        <time>2019-08-05T19:50:36.099Z</time>
      </trkpt>
      <trkpt lat="46.18054" lon="0.52142">
        <ele>146.391974</ele>
        <time>2019-08-05T19:51:05.486Z</time>
      </trkpt>
      <trkpt lat="46.18004" lon="0.52093">
        <ele>146.91519</ele>
        <time>2019-08-05T19:51:27.324Z</time>
      </trkpt>
      <trkpt lat="46.17978" lon="0.52085">
        <ele>147.153476</ele>
        <time>2019-08-05T19:51:36.949Z</time>
      </trkpt>
      <trkpt lat="46.17851" lon="0.52127">
        <ele>147.104039</ele>
        <time>2019-08-05T19:52:19.450Z</time>
      </trkpt>
      <trkpt lat="46.17797" lon="0.52139">
        <ele>146.971802</ele>
        <time>2019-08-05T19:52:35.793Z</time>
      </trkpt>
      <trkpt lat="46.17794" lon="0.52122">
        <ele>146.941244</ele>
        <time>2019-08-05T19:52:38.050Z</time>
      </trkpt>
      <trkpt lat="46.1779" lon="0.52152">
        <ele>146.696725</ele>
        <time>2019-08-05T19:52:41.822Z</time>
      </trkpt>
      <trkpt lat="46.17782" lon="0.5217">
        <ele>146.460527</ele>
        <time>2019-08-05T19:52:44.471Z</time>
      </trkpt>
      <trkpt lat="46.17677" lon="0.52094">
        <ele>144.630906</ele>
        <time>2019-08-05T19:53:04.167Z</time>
      </trkpt>
      <trkpt lat="46.17623" lon="0.5205">
        <ele>143.885628</ele>
        <time>2019-08-05T19:53:14.480Z</time>
      </trkpt>
      <trkpt lat="46.17611" lon="0.52041">
        <ele>143.774671</ele>
        <time>2019-08-05T19:53:16.797Z</time>
      </trkpt>
      <trkpt lat="46.17595" lon="0.52028">
        <ele>143.622722</ele>
        <time>2019-08-05T19:53:19.995Z</time>
      </trkpt>
      <trkpt lat="46.17517" lon="0.51952">
        <ele>142.854123</ele>
        <time>2019-08-05T19:53:37.224Z</time>
      </trkpt>
      <trkpt lat="46.17439" lon="0.51936">
        <ele>143.245138</ele>
        <time>2019-08-05T19:53:55.566Z</time>
      </trkpt>
      <trkpt lat="46.17366" lon="0.51944">
        <ele>144.036492</ele>
        <time>2019-08-05T19:54:15.316Z</time>
      </trkpt>
      <trkpt lat="46.17362" lon="0.51943">
        <ele>144.080773</ele>
        <time>2019-08-05T19:54:16.711Z</time>
      </trkpt>
      <trkpt lat="46.17361" lon="0.5196">
        <ele>144.202644</ele>
        <time>2019-08-05T19:54:19.563Z</time>
      </trkpt>
      <trkpt lat="46.17363" lon="0.51975">
        <ele>144.31792</ele>
        <time>2019-08-05T19:54:22.262Z</time>
      </trkpt>
      <trkpt lat="46.1736" lon="0.51978">
        <ele>144.358358</ele>
        <time>2019-08-05T19:54:23.501Z</time>
      </trkpt>
      <trkpt lat="46.17345" lon="0.5202">
        <ele>144.722229</ele>
        <time>2019-08-05T19:54:31.980Z</time>
      </trkpt>
      <trkpt lat="46.1734" lon="0.52036">
        <ele>144.871435</ele>
        <time>2019-08-05T19:54:35.603Z</time>
      </trkpt>
      <trkpt lat="46.17325" lon="0.52084">
        <ele>145.319824</ele>
        <time>2019-08-05T19:54:45.398Z</time>
      </trkpt>
      <trkpt lat="46.17251" lon="0.52293">
        <ele>146.913314</ele>
        <time>2019-08-05T19:55:25.635Z</time>
      </trkpt>
      <trkpt lat="46.17209" lon="0.52322">
        <ele>147.043997</ele>
        <time>2019-08-05T19:55:36.069Z</time>
      </trkpt>
      <trkpt lat="46.17172" lon="0.52355">
        <ele>147.167834</ele>
        <time>2019-08-05T19:55:45.242Z</time>
      </trkpt>
      <trkpt lat="46.17065" lon="0.52403">
        <ele>146.972901</ele>
        <time>2019-08-05T19:56:06.331Z</time>
      </trkpt>
      <trkpt lat="46.1694" lon="0.52494">
        <ele>146.532075</ele>
        <time>2019-08-05T19:56:32.392Z</time>
      </trkpt>
      <trkpt lat="46.16913" lon="0.52516">
        <ele>146.74665</ele>
        <time>2019-08-05T19:56:38.711Z</time>
      </trkpt>
      <trkpt lat="46.1691" lon="0.52521">
        <ele>146.777871</ele>
        <time>2019-08-05T19:56:39.740Z</time>
      </trkpt>
      <trkpt lat="46.16858" lon="0.52613">
        <ele>147.348469</ele>
        <time>2019-08-05T19:56:59.651Z</time>
      </trkpt>
      <trkpt lat="46.16805" lon="0.527">
        <ele>148.409737</ele>
        <time>2019-08-05T19:57:23.175Z</time>
      </trkpt>
      <trkpt lat="46.16777" lon="0.52738">
        <ele>149.126525</ele>
        <time>2019-08-05T19:57:34.979Z</time>
      </trkpt>
      <trkpt lat="46.1677" lon="0.52744">
        <ele>149.271892</ele>
        <time>2019-08-05T19:57:37.725Z</time>
      </trkpt>
      <trkpt lat="46.16739" lon="0.52835">
        <ele>150.599139</ele>
        <time>2019-08-05T19:58:06.838Z</time>
      </trkpt>
      <trkpt lat="46.16712" lon="0.52887">
        <ele>151.324188</ele>
        <time>2019-08-05T19:58:25.078Z</time>
      </trkpt>
      <trkpt lat="46.16702" lon="0.53056">
        <ele>152.945028</ele>
        <time>2019-08-05T19:59:11.041Z</time>
      </trkpt>
      <trkpt lat="46.16686" lon="0.53192">
        <ele>153.924545</ele>
        <time>2019-08-05T19:59:46.071Z</time>
      </trkpt>
      <trkpt lat="46.1669" lon="0.53226">
        <ele>154.113175</ele>
        <time>2019-08-05T19:59:54.683Z</time>
      </trkpt>
      <trkpt lat="46.16711" lon="0.53279">
        <ele>154.444859</ele>
        <time>2019-08-05T20:00:09.606Z</time>
      </trkpt>
      <trkpt lat="46.16711" lon="0.5332">
        <ele>154.669465</ele>
        <time>2019-08-05T20:00:19.601Z</time>
      </trkpt>
      <trkpt lat="46.16702" lon="0.53365">
        <ele>154.915038</ele>
        <time>2019-08-05T20:00:30.940Z</time>
      </trkpt>
      <trkpt lat="46.16685" lon="0.53388">
        <ele>155.021022</ele>
        <time>2019-08-05T20:00:38.926Z</time>
      </trkpt>
      <trkpt lat="46.1662" lon="0.53428">
        <ele>155.33821</ele>
        <time>2019-08-05T20:01:02.562Z</time>
      </trkpt>
      <trkpt lat="46.16602" lon="0.53459">
        <ele>155.467072</ele>
        <time>2019-08-05T20:01:12.155Z</time>
      </trkpt>
      <trkpt lat="46.16585" lon="0.53507">
        <ele>155.635725</ele>
        <time>2019-08-05T20:01:24.727Z</time>
      </trkpt>
      <trkpt lat="46.16582" lon="0.53579">
        <ele>156.001241</ele>
        <time>2019-08-05T20:01:41.608Z</time>
      </trkpt>
      <trkpt lat="46.16599" lon="0.538">
        <ele>157.312764</ele>
        <time>2019-08-05T20:02:39.089Z</time>
      </trkpt>
      <trkpt lat="46.16607" lon="0.53827">
        <ele>157.343468</ele>
        <time>2019-08-05T20:02:46.729Z</time>
      </trkpt>
      <trkpt lat="46.16567" lon="0.53895">
        <ele>157.438112</ele>
        <time>2019-08-05T20:03:00.052Z</time>
      </trkpt>
      <trkpt lat="46.1654" lon="0.53942">
        <ele>157.502715</ele>
        <time>2019-08-05T20:03:08.416Z</time>
      </trkpt>
      <trkpt lat="46.16472" lon="0.53893">
        <ele>157.131433</ele>
        <time>2019-08-05T20:03:22.672Z</time>
      </trkpt>
      <trkpt lat="46.16419" lon="0.53806">
        <ele>155.840684</ele>
        <time>2019-08-05T20:03:36.031Z</time>
      </trkpt>
      <trkpt lat="46.16404" lon="0.53793">
        <ele>155.571048</ele>
        <time>2019-08-05T20:03:38.688Z</time>
      </trkpt>
      <trkpt lat="46.16348" lon="0.53807">
        <ele>154.670743</ele>
        <time>2019-08-05T20:03:48.174Z</time>
      </trkpt>
      <trkpt lat="46.16339" lon="0.53803">
        <ele>154.59453</ele>
        <time>2019-08-05T20:03:49.620Z</time>
      </trkpt>
      <trkpt lat="46.16311" lon="0.53817">
        <ele>154.345341</ele>
        <time>2019-08-05T20:03:58.102Z</time>
      </trkpt>
      <trkpt lat="46.16275" lon="0.53854">
        <ele>153.972903</ele>
        <time>2019-08-05T20:04:10.808Z</time>
      </trkpt>
      <trkpt lat="46.16259" lon="0.53856">
        <ele>153.838734</ele>
        <time>2019-08-05T20:04:15.653Z</time>
      </trkpt>
      <trkpt lat="46.16246" lon="0.53849">
        <ele>153.722706</ele>
        <time>2019-08-05T20:04:19.716Z</time>
      </trkpt>
      <trkpt lat="46.16147" lon="0.53867">
        <ele>153.383614</ele>
        <time>2019-08-05T20:04:51.446Z</time>
      </trkpt>
      <trkpt lat="46.16104" lon="0.53889">
        <ele>153.644914</ele>
        <time>2019-08-05T20:05:07.030Z</time>
      </trkpt>
      <trkpt lat="46.16084" lon="0.539">
        <ele>153.770235</ele>
        <time>2019-08-05T20:05:14.665Z</time>
      </trkpt>
      <trkpt lat="46.1595" lon="0.53939">
        <ele>154.618133</ele>
        <time>2019-08-05T20:06:03.512Z</time>
      </trkpt>
      <trkpt lat="46.15886" lon="0.53964">
        <ele>155.069361</ele>
        <time>2019-08-05T20:06:26.887Z</time>
      </trkpt>
      <trkpt lat="46.15861" lon="0.53981">
        <ele>155.256102</ele>
        <time>2019-08-05T20:06:36.495Z</time>
      </trkpt>
      <trkpt lat="46.15838" lon="0.5394">
        <ele>155.507812</ele>
        <time>2019-08-05T20:06:49.312Z</time>
      </trkpt>
      <trkpt lat="46.15821" lon="0.53949">
        <ele>155.632322</ele>
        <time>2019-08-05T20:06:55.502Z</time>
      </trkpt>
      <trkpt lat="46.15713" lon="0.54057">
        <ele>156.547745</ele>
        <time>2019-08-05T20:07:41.364Z</time>
      </trkpt>
      <trkpt lat="46.15669" lon="0.54117">
        <ele>157.29893</ele>
        <time>2019-08-05T20:08:03.572Z</time>
      </trkpt>
      <trkpt lat="46.15688" lon="0.54221">
        <ele>158.458936</ele>
        <time>2019-08-05T20:08:32.898Z</time>
      </trkpt>
      <trkpt lat="46.15718" lon="0.54301">
        <ele>159.430884</ele>
        <time>2019-08-05T20:08:58.976Z</time>
      </trkpt>
      <trkpt lat="46.15711" lon="0.54465">
        <ele>161.957689</ele>
        <time>2019-08-05T20:09:48.576Z</time>
      </trkpt>
      <trkpt lat="46.15721" lon="0.54525">
        <ele>162.916248</ele>
        <time>2019-08-05T20:10:07.138Z</time>
      </trkpt>
      <trkpt lat="46.15722" lon="0.54623">
        <ele>164.261367</ele>
        <time>2019-08-05T20:10:35.869Z</time>
      </trkpt>
      <trkpt lat="46.15714" lon="0.54647">
        <ele>164.591241</ele>
        <time>2019-08-05T20:10:43.427Z</time>
      </trkpt>
      <trkpt lat="46.15727" lon="0.54827">
        <ele>166.851365</ele>
        <time>2019-08-05T20:11:34.029Z</time>
      </trkpt>
      <trkpt lat="46.15741" lon="0.54904">
        <ele>167.707756</ele>
        <time>2019-08-05T20:11:55.561Z</time>
      </trkpt>
      <trkpt lat="46.15826" lon="0.55091">
        <ele>169.736391</ele>
        <time>2019-08-05T20:12:57.154Z</time>
      </trkpt>
      <trkpt lat="46.15828" lon="0.55095">
        <ele>169.754388</ele>
        <time>2019-08-05T20:12:59.098Z</time>
      </trkpt>
      <trkpt lat="46.15788" lon="0.55111">
        <ele>169.955086</ele>
        <time>2019-08-05T20:13:09.523Z</time>
      </trkpt>
      <trkpt lat="46.15289" lon="0.5529">
        <ele>171.591842</ele>
        <time>2019-08-05T20:14:52.529Z</time>
      </trkpt>
      <trkpt lat="46.15234" lon="0.5531">
        <ele>171.591842</ele>
        <time>2019-08-05T20:15:03.154Z</time>
      </trkpt>
      <trkpt lat="46.15184" lon="0.55327">
        <ele>171.591842</ele>
        <time>2019-08-05T20:15:12.690Z</time>
      </trkpt>
    </trkseg>
  </trk>
</gpx>